<?xml version='1.0' encoding='UTF-8'?>
<gpx version="1.1" creator="https://www.komoot.de" xmlns="http://www.topografix.com/GPX/1/1" xmlns:xsi="http://www.w3.org/2001/XMLSchema-instance" xsi:schemaLocation="http://www.topografix.com/GPX/1/1 http://www.topografix.com/GPX/1/1/gpx.xsd">
  <metadata>
    <name>GPX Download: Kleiner Brombachsee – Blick auf den Igelsbachsee Runde von Gunzenhausen</name>
    <author>
      <link href="https://www.komoot.de">
        <text>komoot</text>
        <type>text/html</type>
      </link>
    </author>
  </metadata>
  <wpt lat="49.127432" lon="10.840173">
    <name>Weg am Altmühlüberleiter</name>
    <sym>Flag, Blue</sym>
  </wpt>
  <wpt lat="49.128069" lon="10.849027">
    <name>Weg entlang des Altmühlüberleiters</name>
    <sym>Flag, Blue</sym>
  </wpt>
  <wpt lat="49.127949" lon="10.852425">
    <name>Altmühlüberleiter bei der Hühnermühle</name>
    <sym>Flag, Blue</sym>
  </wpt>
  <wpt lat="49.128568" lon="10.856133">
    <name>Kleiner Brombachsee</name>
    <sym>Flag, Blue</sym>
  </wpt>
  <wpt lat="49.138695" lon="10.877601">
    <name>Wakeboard-Anlage, Badehalbinsel Absberg</name>
    <sym>Flag, Blue</sym>
  </wpt>
  <wpt lat="49.140936" lon="10.876777">
    <name>Hopfenstrand</name>
    <sym>Flag, Blue</sym>
  </wpt>
  <wpt lat="49.141342" lon="10.909338">
    <name>Blick auf den Igelsbachsee</name>
    <sym>Flag, Blue</sym>
  </wpt>
  <wpt lat="49.142342" lon="10.909984">
    <name>Seeweg bei Endendorf</name>
    <sym>Flag, Blue</sym>
  </wpt>
  <wpt lat="49.144336" lon="10.913211">
    <name>Müller-Statue am Zweiseenplatz</name>
    <sym>Flag, Blue</sym>
  </wpt>
  <trk>
    <name>GPX Download: Kleiner Brombachsee – Blick auf den Igelsbachsee Runde von Gunzenhausen</name>
    <trkseg>
      <trkpt lat="49.110341" lon="10.755098">
        <ele>415.005417</ele>
        <time>2026-05-05T10:04:21.682Z</time>
      </trkpt>
      <trkpt lat="49.110278" lon="10.755257">
        <ele>415.005417</ele>
        <time>2026-05-05T10:04:24.281Z</time>
      </trkpt>
      <trkpt lat="49.110244" lon="10.755386">
        <ele>415.005417</ele>
        <time>2026-05-05T10:04:26.855Z</time>
      </trkpt>
      <trkpt lat="49.110307" lon="10.755499">
        <ele>415.005417</ele>
        <time>2026-05-05T10:04:29.643Z</time>
      </trkpt>
      <trkpt lat="49.110287" lon="10.755878">
        <ele>415.005417</ele>
        <time>2026-05-05T10:04:35.025Z</time>
      </trkpt>
      <trkpt lat="49.110363" lon="10.755907">
        <ele>415.005417</ele>
        <time>2026-05-05T10:04:36.787Z</time>
      </trkpt>
      <trkpt lat="49.110415" lon="10.755995">
        <ele>415.005417</ele>
        <time>2026-05-05T10:04:38.507Z</time>
      </trkpt>
      <trkpt lat="49.110553" lon="10.756752">
        <ele>415.147373</ele>
        <time>2026-05-05T10:04:50.280Z</time>
      </trkpt>
      <trkpt lat="49.110816" lon="10.756614">
        <ele>415.267080</ele>
        <time>2026-05-05T10:04:56.898Z</time>
      </trkpt>
      <trkpt lat="49.111159" lon="10.756256">
        <ele>415.445903</ele>
        <time>2026-05-05T10:05:07.038Z</time>
      </trkpt>
      <trkpt lat="49.111179" lon="10.756331">
        <ele>415.468723</ele>
        <time>2026-05-05T10:05:08.364Z</time>
      </trkpt>
      <trkpt lat="49.111359" lon="10.757028">
        <ele>415.679859</ele>
        <time>2026-05-05T10:05:20.383Z</time>
      </trkpt>
      <trkpt lat="49.111556" lon="10.757877">
        <ele>416.346246</ele>
        <time>2026-05-05T10:05:35.025Z</time>
      </trkpt>
      <trkpt lat="49.111627" lon="10.757874">
        <ele>416.458736</ele>
        <time>2026-05-05T10:05:36.737Z</time>
      </trkpt>
      <trkpt lat="49.111766" lon="10.757868">
        <ele>416.678966</ele>
        <time>2026-05-05T10:05:40.079Z</time>
      </trkpt>
      <trkpt lat="49.111898" lon="10.757794">
        <ele>416.901654</ele>
        <time>2026-05-05T10:05:43.518Z</time>
      </trkpt>
      <trkpt lat="49.111963" lon="10.757967">
        <ele>417.108448</ele>
        <time>2026-05-05T10:05:47.793Z</time>
      </trkpt>
      <trkpt lat="49.112122" lon="10.758336">
        <ele>417.566433</ele>
        <time>2026-05-05T10:05:57.874Z</time>
      </trkpt>
      <trkpt lat="49.112302" lon="10.758080">
        <ele>417.955923</ele>
        <time>2026-05-05T10:06:05.244Z</time>
      </trkpt>
      <trkpt lat="49.112411" lon="10.757924">
        <ele>418.192473</ele>
        <time>2026-05-05T10:06:10.019Z</time>
      </trkpt>
      <trkpt lat="49.112455" lon="10.757973">
        <ele>418.278708</ele>
        <time>2026-05-05T10:06:11.819Z</time>
      </trkpt>
      <trkpt lat="49.112594" lon="10.758017">
        <ele>418.503526</ele>
        <time>2026-05-05T10:06:16.554Z</time>
      </trkpt>
      <trkpt lat="49.112644" lon="10.757995">
        <ele>418.585933</ele>
        <time>2026-05-05T10:06:18.287Z</time>
      </trkpt>
      <trkpt lat="49.112664" lon="10.757935">
        <ele>418.695128</ele>
        <time>2026-05-05T10:06:19.774Z</time>
      </trkpt>
      <trkpt lat="49.113276" lon="10.758941">
        <ele>422.163242</ele>
        <time>2026-05-05T10:06:54.263Z</time>
      </trkpt>
      <trkpt lat="49.113523" lon="10.759284">
        <ele>423.450952</ele>
        <time>2026-05-05T10:07:08.038Z</time>
      </trkpt>
      <trkpt lat="49.113672" lon="10.759467">
        <ele>424.188490</ele>
        <time>2026-05-05T10:07:15.765Z</time>
      </trkpt>
      <trkpt lat="49.113809" lon="10.759716">
        <ele>425.009885</ele>
        <time>2026-05-05T10:07:24.146Z</time>
      </trkpt>
      <trkpt lat="49.113914" lon="10.759997">
        <ele>425.795758</ele>
        <time>2026-05-05T10:07:32.254Z</time>
      </trkpt>
      <trkpt lat="49.114303" lon="10.761091">
        <ele>428.562188</ele>
        <time>2026-05-05T10:08:02.037Z</time>
      </trkpt>
      <trkpt lat="49.114586" lon="10.761735">
        <ele>430.285748</ele>
        <time>2026-05-05T10:08:19.678Z</time>
      </trkpt>
      <trkpt lat="49.114669" lon="10.761843">
        <ele>430.655855</ele>
        <time>2026-05-05T10:08:23.425Z</time>
      </trkpt>
      <trkpt lat="49.114766" lon="10.761972">
        <ele>431.092424</ele>
        <time>2026-05-05T10:08:27.906Z</time>
      </trkpt>
      <trkpt lat="49.115029" lon="10.762270">
        <ele>432.068924</ele>
        <time>2026-05-05T10:08:39.148Z</time>
      </trkpt>
      <trkpt lat="49.115180" lon="10.762392">
        <ele>432.501279</ele>
        <time>2026-05-05T10:08:44.929Z</time>
      </trkpt>
      <trkpt lat="49.115339" lon="10.762520">
        <ele>432.956181</ele>
        <time>2026-05-05T10:08:50.876Z</time>
      </trkpt>
      <trkpt lat="49.115720" lon="10.762794">
        <ele>434.022041</ele>
        <time>2026-05-05T10:09:04.189Z</time>
      </trkpt>
      <trkpt lat="49.116042" lon="10.763034">
        <ele>434.928882</ele>
        <time>2026-05-05T10:09:15.592Z</time>
      </trkpt>
      <trkpt lat="49.116312" lon="10.763148">
        <ele>435.637905</ele>
        <time>2026-05-05T10:09:24.560Z</time>
      </trkpt>
      <trkpt lat="49.116531" lon="10.763175">
        <ele>436.194025</ele>
        <time>2026-05-05T10:09:31.340Z</time>
      </trkpt>
      <trkpt lat="49.116754" lon="10.763178">
        <ele>436.879611</ele>
        <time>2026-05-05T10:09:38.320Z</time>
      </trkpt>
      <trkpt lat="49.116818" lon="10.763394">
        <ele>437.361706</ele>
        <time>2026-05-05T10:09:43.172Z</time>
      </trkpt>
      <trkpt lat="49.116986" lon="10.763850">
        <ele>438.425674</ele>
        <time>2026-05-05T10:09:54.349Z</time>
      </trkpt>
      <trkpt lat="49.117067" lon="10.764094">
        <ele>438.981957</ele>
        <time>2026-05-05T10:10:00.506Z</time>
      </trkpt>
      <trkpt lat="49.117129" lon="10.764275">
        <ele>439.397332</ele>
        <time>2026-05-05T10:10:05.333Z</time>
      </trkpt>
      <trkpt lat="49.117388" lon="10.764761">
        <ele>440.671630</ele>
        <time>2026-05-05T10:10:20.702Z</time>
      </trkpt>
      <trkpt lat="49.117969" lon="10.765802">
        <ele>443.368735</ele>
        <time>2026-05-05T10:10:53.868Z</time>
      </trkpt>
      <trkpt lat="49.118066" lon="10.766132">
        <ele>444.066338</ele>
        <time>2026-05-05T10:11:02.003Z</time>
      </trkpt>
      <trkpt lat="49.118167" lon="10.766890">
        <ele>445.558047</ele>
        <time>2026-05-05T10:11:19.072Z</time>
      </trkpt>
      <trkpt lat="49.118235" lon="10.767396">
        <ele>446.554170</ele>
        <time>2026-05-05T10:11:29.386Z</time>
      </trkpt>
      <trkpt lat="49.118309" lon="10.767943">
        <ele>447.575468</ele>
        <time>2026-05-05T10:11:40.572Z</time>
      </trkpt>
      <trkpt lat="49.118262" lon="10.767998">
        <ele>447.731120</ele>
        <time>2026-05-05T10:11:42.732Z</time>
      </trkpt>
      <trkpt lat="49.118325" lon="10.768523">
        <ele>448.649601</ele>
        <time>2026-05-05T10:11:53.552Z</time>
      </trkpt>
      <trkpt lat="49.118766" lon="10.771741">
        <ele>453.162989</ele>
        <time>2026-05-05T10:13:05.620Z</time>
      </trkpt>
      <trkpt lat="49.118891" lon="10.773383">
        <ele>454.125626</ele>
        <time>2026-05-05T10:13:30.640Z</time>
      </trkpt>
      <trkpt lat="49.118940" lon="10.774439">
        <ele>453.340825</ele>
        <time>2026-05-05T10:13:42.820Z</time>
      </trkpt>
      <trkpt lat="49.118956" lon="10.776050">
        <ele>452.568409</ele>
        <time>2026-05-05T10:14:02.063Z</time>
      </trkpt>
      <trkpt lat="49.118961" lon="10.776504">
        <ele>452.970423</ele>
        <time>2026-05-05T10:14:09.296Z</time>
      </trkpt>
      <trkpt lat="49.119034" lon="10.778481">
        <ele>454.723576</ele>
        <time>2026-05-05T10:14:50.252Z</time>
      </trkpt>
      <trkpt lat="49.119127" lon="10.781102">
        <ele>456.887073</ele>
        <time>2026-05-05T10:15:38.907Z</time>
      </trkpt>
      <trkpt lat="49.119182" lon="10.781544">
        <ele>456.851951</ele>
        <time>2026-05-05T10:15:45.078Z</time>
      </trkpt>
      <trkpt lat="49.119289" lon="10.782003">
        <ele>456.526940</ele>
        <time>2026-05-05T10:15:51.288Z</time>
      </trkpt>
      <trkpt lat="49.119791" lon="10.783346">
        <ele>455.495309</ele>
        <time>2026-05-05T10:16:10.026Z</time>
      </trkpt>
      <trkpt lat="49.119958" lon="10.784084">
        <ele>454.771466</ele>
        <time>2026-05-05T10:16:19.452Z</time>
      </trkpt>
      <trkpt lat="49.120042" lon="10.785006">
        <ele>453.592478</ele>
        <time>2026-05-05T10:16:30.607Z</time>
      </trkpt>
      <trkpt lat="49.120108" lon="10.786914">
        <ele>451.012734</ele>
        <time>2026-05-05T10:16:52.173Z</time>
      </trkpt>
      <trkpt lat="49.120214" lon="10.789840">
        <ele>447.337767</ele>
        <time>2026-05-05T10:17:24.356Z</time>
      </trkpt>
      <trkpt lat="49.120178" lon="10.790405">
        <ele>447.444917</ele>
        <time>2026-05-05T10:17:32.085Z</time>
      </trkpt>
      <trkpt lat="49.120095" lon="10.790957">
        <ele>447.551824</ele>
        <time>2026-05-05T10:17:41.813Z</time>
      </trkpt>
      <trkpt lat="49.120052" lon="10.791189">
        <ele>447.597337</ele>
        <time>2026-05-05T10:17:46.600Z</time>
      </trkpt>
      <trkpt lat="49.119639" lon="10.792777">
        <ele>447.771979</ele>
        <time>2026-05-05T10:18:22.370Z</time>
      </trkpt>
      <trkpt lat="49.119543" lon="10.793422">
        <ele>447.793847</ele>
        <time>2026-05-05T10:18:32.812Z</time>
      </trkpt>
      <trkpt lat="49.119606" lon="10.793555">
        <ele>447.799275</ele>
        <time>2026-05-05T10:18:34.962Z</time>
      </trkpt>
      <trkpt lat="49.119562" lon="10.793957">
        <ele>447.812749</ele>
        <time>2026-05-05T10:18:39.961Z</time>
      </trkpt>
      <trkpt lat="49.119533" lon="10.794204">
        <ele>447.821045</ele>
        <time>2026-05-05T10:18:42.834Z</time>
      </trkpt>
      <trkpt lat="49.119437" lon="10.794614">
        <ele>447.583200</ele>
        <time>2026-05-05T10:18:47.601Z</time>
      </trkpt>
      <trkpt lat="49.119172" lon="10.795750">
        <ele>445.116343</ele>
        <time>2026-05-05T10:19:00.320Z</time>
      </trkpt>
      <trkpt lat="49.118860" lon="10.796432">
        <ele>443.414306</ele>
        <time>2026-05-05T10:19:09.205Z</time>
      </trkpt>
      <trkpt lat="49.118924" lon="10.796511">
        <ele>443.157165</ele>
        <time>2026-05-05T10:19:10.552Z</time>
      </trkpt>
      <trkpt lat="49.119003" lon="10.796515">
        <ele>442.910129</ele>
        <time>2026-05-05T10:19:11.836Z</time>
      </trkpt>
      <trkpt lat="49.119205" lon="10.796414">
        <ele>442.245868</ele>
        <time>2026-05-05T10:19:15.318Z</time>
      </trkpt>
      <trkpt lat="49.119591" lon="10.796126">
        <ele>440.743516</ele>
        <time>2026-05-05T10:19:22.268Z</time>
      </trkpt>
      <trkpt lat="49.120095" lon="10.795898">
        <ele>438.899839</ele>
        <time>2026-05-05T10:19:30.572Z</time>
      </trkpt>
      <trkpt lat="49.120683" lon="10.795784">
        <ele>436.820845</ele>
        <time>2026-05-05T10:19:39.988Z</time>
      </trkpt>
      <trkpt lat="49.120782" lon="10.795784">
        <ele>436.473594</ele>
        <time>2026-05-05T10:19:41.555Z</time>
      </trkpt>
      <trkpt lat="49.121260" lon="10.795752">
        <ele>435.250537</ele>
        <time>2026-05-05T10:19:49.343Z</time>
      </trkpt>
      <trkpt lat="49.121656" lon="10.795734">
        <ele>434.432906</ele>
        <time>2026-05-05T10:19:55.997Z</time>
      </trkpt>
      <trkpt lat="49.121865" lon="10.795725">
        <ele>434.001399</ele>
        <time>2026-05-05T10:19:59.613Z</time>
      </trkpt>
      <trkpt lat="49.122531" lon="10.795716">
        <ele>432.626847</ele>
        <time>2026-05-05T10:20:11.862Z</time>
      </trkpt>
      <trkpt lat="49.122656" lon="10.795716">
        <ele>432.368871</ele>
        <time>2026-05-05T10:20:14.303Z</time>
      </trkpt>
      <trkpt lat="49.122665" lon="10.799579">
        <ele>430.948380</ele>
        <time>2026-05-05T10:21:05.660Z</time>
      </trkpt>
      <trkpt lat="49.123630" lon="10.799570">
        <ele>430.786123</ele>
        <time>2026-05-05T10:21:25.489Z</time>
      </trkpt>
      <trkpt lat="49.124079" lon="10.799657">
        <ele>431.102816</ele>
        <time>2026-05-05T10:21:37.615Z</time>
      </trkpt>
      <trkpt lat="49.124387" lon="10.799751">
        <ele>431.522035</ele>
        <time>2026-05-05T10:21:47.289Z</time>
      </trkpt>
      <trkpt lat="49.124455" lon="10.799784">
        <ele>431.617264</ele>
        <time>2026-05-05T10:21:49.545Z</time>
      </trkpt>
      <trkpt lat="49.125074" lon="10.800076">
        <ele>432.481938</ele>
        <time>2026-05-05T10:22:09.596Z</time>
      </trkpt>
      <trkpt lat="49.125225" lon="10.800116">
        <ele>432.686490</ele>
        <time>2026-05-05T10:22:14.072Z</time>
      </trkpt>
      <trkpt lat="49.125504" lon="10.800190">
        <ele>433.064449</ele>
        <time>2026-05-05T10:22:21.538Z</time>
      </trkpt>
      <trkpt lat="49.125609" lon="10.800218">
        <ele>433.135888</ele>
        <time>2026-05-05T10:22:24.133Z</time>
      </trkpt>
      <trkpt lat="49.125905" lon="10.800310">
        <ele>432.990243</ele>
        <time>2026-05-05T10:22:30.732Z</time>
      </trkpt>
      <trkpt lat="49.126294" lon="10.800460">
        <ele>432.796799</ele>
        <time>2026-05-05T10:22:38.586Z</time>
      </trkpt>
      <trkpt lat="49.126569" lon="10.800620">
        <ele>432.654917</ele>
        <time>2026-05-05T10:22:44.031Z</time>
      </trkpt>
      <trkpt lat="49.126766" lon="10.800781">
        <ele>432.547198</ele>
        <time>2026-05-05T10:22:48.166Z</time>
      </trkpt>
      <trkpt lat="49.126647" lon="10.800951">
        <ele>432.468652</ele>
        <time>2026-05-05T10:22:51.267Z</time>
      </trkpt>
      <trkpt lat="49.126121" lon="10.801747">
        <ele>432.543197</ele>
        <time>2026-05-05T10:23:08.500Z</time>
      </trkpt>
      <trkpt lat="49.125956" lon="10.802108">
        <ele>432.745430</ele>
        <time>2026-05-05T10:23:16.349Z</time>
      </trkpt>
      <trkpt lat="49.125857" lon="10.802490">
        <ele>432.934130</ele>
        <time>2026-05-05T10:23:24.063Z</time>
      </trkpt>
      <trkpt lat="49.125793" lon="10.802747">
        <ele>433.060420</ele>
        <time>2026-05-05T10:23:29.332Z</time>
      </trkpt>
      <trkpt lat="49.125654" lon="10.803051">
        <ele>433.230744</ele>
        <time>2026-05-05T10:23:36.583Z</time>
      </trkpt>
      <trkpt lat="49.125581" lon="10.803279">
        <ele>433.347320</ele>
        <time>2026-05-05T10:23:41.633Z</time>
      </trkpt>
      <trkpt lat="49.125273" lon="10.805121">
        <ele>434.343036</ele>
        <time>2026-05-05T10:24:18.790Z</time>
      </trkpt>
      <trkpt lat="49.125261" lon="10.805384">
        <ele>434.486242</ele>
        <time>2026-05-05T10:24:23.455Z</time>
      </trkpt>
      <trkpt lat="49.125554" lon="10.806928">
        <ele>435.199078</ele>
        <time>2026-05-05T10:24:50.166Z</time>
      </trkpt>
      <trkpt lat="49.126311" lon="10.810572">
        <ele>436.505729</ele>
        <time>2026-05-05T10:25:57.140Z</time>
      </trkpt>
      <trkpt lat="49.127272" lon="10.815331">
        <ele>438.930973</ele>
        <time>2026-05-05T10:27:29.742Z</time>
      </trkpt>
      <trkpt lat="49.127507" lon="10.816618">
        <ele>439.218909</ele>
        <time>2026-05-05T10:27:52.194Z</time>
      </trkpt>
      <trkpt lat="49.128510" lon="10.821488">
        <ele>436.429174</ele>
        <time>2026-05-05T10:29:05.527Z</time>
      </trkpt>
      <trkpt lat="49.125690" lon="10.822838">
        <ele>432.809310</ele>
        <time>2026-05-05T10:30:07.430Z</time>
      </trkpt>
      <trkpt lat="49.124967" lon="10.823148">
        <ele>432.007813</ele>
        <time>2026-05-05T10:30:23.668Z</time>
      </trkpt>
      <trkpt lat="49.125064" lon="10.824119">
        <ele>431.374130</ele>
        <time>2026-05-05T10:30:38.108Z</time>
      </trkpt>
      <trkpt lat="49.125194" lon="10.824889">
        <ele>430.904550</ele>
        <time>2026-05-05T10:30:50.238Z</time>
      </trkpt>
      <trkpt lat="49.125279" lon="10.825397">
        <ele>430.594921</ele>
        <time>2026-05-05T10:30:58.294Z</time>
      </trkpt>
      <trkpt lat="49.125611" lon="10.826965">
        <ele>428.627362</ele>
        <time>2026-05-05T10:31:20.614Z</time>
      </trkpt>
      <trkpt lat="49.125947" lon="10.828737">
        <ele>424.933611</ele>
        <time>2026-05-05T10:31:42.351Z</time>
      </trkpt>
      <trkpt lat="49.125977" lon="10.828809">
        <ele>424.762716</ele>
        <time>2026-05-05T10:31:43.323Z</time>
      </trkpt>
      <trkpt lat="49.126023" lon="10.828895">
        <ele>424.540332</ele>
        <time>2026-05-05T10:31:44.436Z</time>
      </trkpt>
      <trkpt lat="49.126248" lon="10.827971">
        <ele>423.242138</ele>
        <time>2026-05-05T10:31:54.770Z</time>
      </trkpt>
      <trkpt lat="49.126292" lon="10.827855">
        <ele>423.065852</ele>
        <time>2026-05-05T10:31:56.261Z</time>
      </trkpt>
      <trkpt lat="49.126449" lon="10.827642">
        <ele>422.644030</ele>
        <time>2026-05-05T10:31:59.882Z</time>
      </trkpt>
      <trkpt lat="49.126413" lon="10.827870">
        <ele>422.335653</ele>
        <time>2026-05-05T10:32:02.620Z</time>
      </trkpt>
      <trkpt lat="49.126187" lon="10.829281">
        <ele>420.697446</ele>
        <time>2026-05-05T10:32:24.470Z</time>
      </trkpt>
      <trkpt lat="49.126150" lon="10.829876">
        <ele>420.342847</ele>
        <time>2026-05-05T10:32:34.520Z</time>
      </trkpt>
      <trkpt lat="49.126179" lon="10.830628">
        <ele>419.895918</ele>
        <time>2026-05-05T10:32:45.766Z</time>
      </trkpt>
      <trkpt lat="49.126294" lon="10.831363">
        <ele>419.447557</ele>
        <time>2026-05-05T10:32:56.004Z</time>
      </trkpt>
      <trkpt lat="49.126500" lon="10.832150">
        <ele>418.461794</ele>
        <time>2026-05-05T10:33:06.955Z</time>
      </trkpt>
      <trkpt lat="49.127212" lon="10.834459">
        <ele>415.071834</ele>
        <time>2026-05-05T10:33:39.308Z</time>
      </trkpt>
      <trkpt lat="49.127462" lon="10.835676">
        <ele>414.052389</ele>
        <time>2026-05-05T10:33:56.448Z</time>
      </trkpt>
      <trkpt lat="49.127517" lon="10.836541">
        <ele>413.357814</ele>
        <time>2026-05-05T10:34:09.169Z</time>
      </trkpt>
      <trkpt lat="49.127415" lon="10.840172">
        <ele>413.933846</ele>
        <time>2026-05-05T10:35:10.016Z</time>
      </trkpt>
      <trkpt lat="49.127406" lon="10.840476">
        <ele>414.155912</ele>
        <time>2026-05-05T10:35:15.509Z</time>
      </trkpt>
      <trkpt lat="49.127544" lon="10.841902">
        <ele>415.207832</ele>
        <time>2026-05-05T10:35:44.605Z</time>
      </trkpt>
      <trkpt lat="49.127498" lon="10.842847">
        <ele>415.821851</ele>
        <time>2026-05-05T10:36:04.098Z</time>
      </trkpt>
      <trkpt lat="49.127568" lon="10.843045">
        <ele>415.957623</ele>
        <time>2026-05-05T10:36:08.637Z</time>
      </trkpt>
      <trkpt lat="49.127679" lon="10.843235">
        <ele>416.111285</ele>
        <time>2026-05-05T10:36:13.726Z</time>
      </trkpt>
      <trkpt lat="49.127727" lon="10.843394">
        <ele>416.216925</ele>
        <time>2026-05-05T10:36:17.212Z</time>
      </trkpt>
      <trkpt lat="49.127872" lon="10.844347">
        <ele>416.807203</ele>
        <time>2026-05-05T10:36:35.485Z</time>
      </trkpt>
      <trkpt lat="49.127930" lon="10.845451">
        <ele>416.770541</ele>
        <time>2026-05-05T10:36:52.455Z</time>
      </trkpt>
      <trkpt lat="49.127925" lon="10.846165">
        <ele>416.369480</ele>
        <time>2026-05-05T10:37:02.728Z</time>
      </trkpt>
      <trkpt lat="49.127764" lon="10.847400">
        <ele>415.662175</ele>
        <time>2026-05-05T10:37:20.218Z</time>
      </trkpt>
      <trkpt lat="49.127752" lon="10.847643">
        <ele>415.524223</ele>
        <time>2026-05-05T10:37:23.559Z</time>
      </trkpt>
      <trkpt lat="49.127784" lon="10.848113">
        <ele>415.251880</ele>
        <time>2026-05-05T10:37:30.062Z</time>
      </trkpt>
      <trkpt lat="49.127820" lon="10.848339">
        <ele>415.117823</ele>
        <time>2026-05-05T10:37:33.324Z</time>
      </trkpt>
      <trkpt lat="49.127924" lon="10.848702">
        <ele>414.889438</ele>
        <time>2026-05-05T10:37:38.956Z</time>
      </trkpt>
      <trkpt lat="49.128076" lon="10.849020">
        <ele>414.662474</ele>
        <time>2026-05-05T10:37:44.708Z</time>
      </trkpt>
      <trkpt lat="49.128245" lon="10.849375">
        <ele>414.409459</ele>
        <time>2026-05-05T10:37:51.223Z</time>
      </trkpt>
      <trkpt lat="49.128313" lon="10.849637">
        <ele>414.247016</ele>
        <time>2026-05-05T10:37:55.397Z</time>
      </trkpt>
      <trkpt lat="49.128341" lon="10.850008">
        <ele>414.031778</ele>
        <time>2026-05-05T10:38:00.928Z</time>
      </trkpt>
      <trkpt lat="49.128318" lon="10.850507">
        <ele>413.802011</ele>
        <time>2026-05-05T10:38:08.306Z</time>
      </trkpt>
      <trkpt lat="49.128280" lon="10.850764">
        <ele>413.687369</ele>
        <time>2026-05-05T10:38:12.174Z</time>
      </trkpt>
      <trkpt lat="49.128017" lon="10.852200">
        <ele>413.038542</ele>
        <time>2026-05-05T10:38:34.087Z</time>
      </trkpt>
      <trkpt lat="49.127960" lon="10.852431">
        <ele>412.931123</ele>
        <time>2026-05-05T10:38:37.694Z</time>
      </trkpt>
      <trkpt lat="49.127908" lon="10.852638">
        <ele>412.834647</ele>
        <time>2026-05-05T10:38:40.955Z</time>
      </trkpt>
      <trkpt lat="49.127873" lon="10.853143">
        <ele>412.655395</ele>
        <time>2026-05-05T10:38:48.519Z</time>
      </trkpt>
      <trkpt lat="49.127860" lon="10.853412">
        <ele>412.566376</ele>
        <time>2026-05-05T10:38:52.584Z</time>
      </trkpt>
      <trkpt lat="49.127989" lon="10.854192">
        <ele>412.300860</ele>
        <time>2026-05-05T10:39:04.870Z</time>
      </trkpt>
      <trkpt lat="49.128042" lon="10.854333">
        <ele>412.247196</ele>
        <time>2026-05-05T10:39:07.323Z</time>
      </trkpt>
      <trkpt lat="49.128311" lon="10.854826">
        <ele>412.035351</ele>
        <time>2026-05-05T10:39:16.785Z</time>
      </trkpt>
      <trkpt lat="49.128379" lon="10.855021">
        <ele>411.962429</ele>
        <time>2026-05-05T10:39:20.169Z</time>
      </trkpt>
      <trkpt lat="49.128397" lon="10.855203">
        <ele>411.901682</ele>
        <time>2026-05-05T10:39:23.023Z</time>
      </trkpt>
      <trkpt lat="49.128370" lon="10.855467">
        <ele>411.863237</ele>
        <time>2026-05-05T10:39:27.095Z</time>
      </trkpt>
      <trkpt lat="49.128422" lon="10.855898">
        <ele>411.828003</ele>
        <time>2026-05-05T10:39:33.705Z</time>
      </trkpt>
      <trkpt lat="49.128427" lon="10.855967">
        <ele>411.822422</ele>
        <time>2026-05-05T10:39:36.846Z</time>
      </trkpt>
      <trkpt lat="49.128434" lon="10.856152">
        <ele>411.807524</ele>
        <time>2026-05-05T10:39:45.275Z</time>
      </trkpt>
      <trkpt lat="49.128407" lon="10.856231">
        <ele>411.800358</ele>
        <time>2026-05-05T10:39:49.360Z</time>
      </trkpt>
      <trkpt lat="49.128270" lon="10.856366">
        <ele>411.780331</ele>
        <time>2026-05-05T10:39:52.694Z</time>
      </trkpt>
      <trkpt lat="49.128155" lon="10.856397">
        <ele>411.765984</ele>
        <time>2026-05-05T10:39:55.141Z</time>
      </trkpt>
      <trkpt lat="49.128093" lon="10.856334">
        <ele>411.756837</ele>
        <time>2026-05-05T10:39:56.725Z</time>
      </trkpt>
      <trkpt lat="49.128192" lon="10.856216">
        <ele>411.741412</ele>
        <time>2026-05-05T10:39:59.426Z</time>
      </trkpt>
      <trkpt lat="49.128372" lon="10.856138">
        <ele>411.718425</ele>
        <time>2026-05-05T10:40:03.678Z</time>
      </trkpt>
      <trkpt lat="49.128568" lon="10.856125">
        <ele>411.694322</ele>
        <time>2026-05-05T10:40:08.332Z</time>
      </trkpt>
      <trkpt lat="49.128835" lon="10.856107">
        <ele>411.661487</ele>
        <time>2026-05-05T10:40:14.827Z</time>
      </trkpt>
      <trkpt lat="49.129590" lon="10.856206">
        <ele>412.101040</ele>
        <time>2026-05-05T10:40:33.387Z</time>
      </trkpt>
      <trkpt lat="49.130374" lon="10.856318">
        <ele>412.577558</ele>
        <time>2026-05-05T10:40:53.343Z</time>
      </trkpt>
      <trkpt lat="49.130909" lon="10.856493">
        <ele>412.832936</ele>
        <time>2026-05-05T10:41:06.555Z</time>
      </trkpt>
      <trkpt lat="49.131584" lon="10.856874">
        <ele>413.064742</ele>
        <time>2026-05-05T10:41:24.572Z</time>
      </trkpt>
      <trkpt lat="49.132117" lon="10.857265">
        <ele>413.255201</ele>
        <time>2026-05-05T10:41:38.811Z</time>
      </trkpt>
      <trkpt lat="49.132410" lon="10.857543">
        <ele>413.124695</ele>
        <time>2026-05-05T10:41:45.986Z</time>
      </trkpt>
      <trkpt lat="49.132754" lon="10.857917">
        <ele>412.441772</ele>
        <time>2026-05-05T10:41:54.005Z</time>
      </trkpt>
      <trkpt lat="49.133427" lon="10.858907">
        <ele>410.930712</ele>
        <time>2026-05-05T10:42:10.174Z</time>
      </trkpt>
      <trkpt lat="49.133686" lon="10.859395">
        <ele>410.353382</ele>
        <time>2026-05-05T10:42:17.250Z</time>
      </trkpt>
      <trkpt lat="49.133963" lon="10.860018">
        <ele>410.019717</ele>
        <time>2026-05-05T10:42:26.284Z</time>
      </trkpt>
      <trkpt lat="49.134237" lon="10.860768">
        <ele>409.639203</ele>
        <time>2026-05-05T10:42:37.785Z</time>
      </trkpt>
      <trkpt lat="49.134796" lon="10.862740">
        <ele>409.427092</ele>
        <time>2026-05-05T10:43:10.484Z</time>
      </trkpt>
      <trkpt lat="49.135166" lon="10.863950">
        <ele>409.691092</ele>
        <time>2026-05-05T10:43:31.039Z</time>
      </trkpt>
      <trkpt lat="49.135334" lon="10.864423">
        <ele>409.834331</ele>
        <time>2026-05-05T10:43:39.491Z</time>
      </trkpt>
      <trkpt lat="49.135631" lon="10.865143">
        <ele>410.114724</ele>
        <time>2026-05-05T10:43:53.069Z</time>
      </trkpt>
      <trkpt lat="49.136056" lon="10.866059">
        <ele>410.484650</ele>
        <time>2026-05-05T10:44:11.025Z</time>
      </trkpt>
      <trkpt lat="49.136071" lon="10.866268">
        <ele>410.553912</ele>
        <time>2026-05-05T10:44:14.438Z</time>
      </trkpt>
      <trkpt lat="49.136049" lon="10.866862">
        <ele>410.712446</ele>
        <time>2026-05-05T10:44:23.982Z</time>
      </trkpt>
      <trkpt lat="49.136103" lon="10.867073">
        <ele>410.759701</ele>
        <time>2026-05-05T10:44:27.538Z</time>
      </trkpt>
      <trkpt lat="49.136305" lon="10.867582">
        <ele>410.883868</ele>
        <time>2026-05-05T10:44:36.467Z</time>
      </trkpt>
      <trkpt lat="49.136461" lon="10.867975">
        <ele>410.979743</ele>
        <time>2026-05-05T10:44:43.054Z</time>
      </trkpt>
      <trkpt lat="49.136547" lon="10.868204">
        <ele>411.034814</ele>
        <time>2026-05-05T10:44:46.828Z</time>
      </trkpt>
      <trkpt lat="49.136618" lon="10.868473">
        <ele>411.095313</ele>
        <time>2026-05-05T10:44:51.197Z</time>
      </trkpt>
      <trkpt lat="49.136655" lon="10.868768">
        <ele>411.157962</ele>
        <time>2026-05-05T10:44:56.073Z</time>
      </trkpt>
      <trkpt lat="49.136690" lon="10.869102">
        <ele>411.241038</ele>
        <time>2026-05-05T10:45:01.464Z</time>
      </trkpt>
      <trkpt lat="49.136712" lon="10.869328">
        <ele>411.370181</ele>
        <time>2026-05-05T10:45:05.092Z</time>
      </trkpt>
      <trkpt lat="49.136733" lon="10.869512">
        <ele>411.475750</ele>
        <time>2026-05-05T10:45:08.108Z</time>
      </trkpt>
      <trkpt lat="49.136736" lon="10.869788">
        <ele>411.631769</ele>
        <time>2026-05-05T10:45:12.662Z</time>
      </trkpt>
      <trkpt lat="49.136746" lon="10.870047">
        <ele>411.778412</ele>
        <time>2026-05-05T10:45:17.030Z</time>
      </trkpt>
      <trkpt lat="49.136755" lon="10.870278">
        <ele>411.909206</ele>
        <time>2026-05-05T10:45:20.938Z</time>
      </trkpt>
      <trkpt lat="49.136779" lon="10.870599">
        <ele>412.091819</ele>
        <time>2026-05-05T10:45:26.445Z</time>
      </trkpt>
      <trkpt lat="49.136798" lon="10.870829">
        <ele>412.222848</ele>
        <time>2026-05-05T10:45:30.445Z</time>
      </trkpt>
      <trkpt lat="49.136833" lon="10.871044">
        <ele>412.348073</ele>
        <time>2026-05-05T10:45:34.328Z</time>
      </trkpt>
      <trkpt lat="49.136863" lon="10.871265">
        <ele>412.475644</ele>
        <time>2026-05-05T10:45:38.339Z</time>
      </trkpt>
      <trkpt lat="49.136883" lon="10.871469">
        <ele>412.592233</ele>
        <time>2026-05-05T10:45:42.017Z</time>
      </trkpt>
      <trkpt lat="49.136868" lon="10.872009">
        <ele>412.900584</ele>
        <time>2026-05-05T10:45:51.419Z</time>
      </trkpt>
      <trkpt lat="49.136856" lon="10.872474">
        <ele>413.169751</ele>
        <time>2026-05-05T10:45:59.141Z</time>
      </trkpt>
      <trkpt lat="49.136905" lon="10.873088">
        <ele>413.527523</ele>
        <time>2026-05-05T10:46:09.682Z</time>
      </trkpt>
      <trkpt lat="49.136964" lon="10.873491">
        <ele>413.766384</ele>
        <time>2026-05-05T10:46:16.538Z</time>
      </trkpt>
      <trkpt lat="49.136958" lon="10.873964">
        <ele>414.040020</ele>
        <time>2026-05-05T10:46:24.431Z</time>
      </trkpt>
      <trkpt lat="49.136980" lon="10.874357">
        <ele>414.268163</ele>
        <time>2026-05-05T10:46:31.071Z</time>
      </trkpt>
      <trkpt lat="49.136998" lon="10.874684">
        <ele>414.415737</ele>
        <time>2026-05-05T10:46:36.598Z</time>
      </trkpt>
      <trkpt lat="49.136970" lon="10.875418">
        <ele>414.647535</ele>
        <time>2026-05-05T10:46:48.539Z</time>
      </trkpt>
      <trkpt lat="49.136841" lon="10.876500">
        <ele>414.994269</ele>
        <time>2026-05-05T10:47:06.481Z</time>
      </trkpt>
      <trkpt lat="49.136825" lon="10.877071">
        <ele>415.174450</ele>
        <time>2026-05-05T10:47:15.199Z</time>
      </trkpt>
      <trkpt lat="49.136879" lon="10.877134">
        <ele>415.207185</ele>
        <time>2026-05-05T10:47:16.713Z</time>
      </trkpt>
      <trkpt lat="49.137329" lon="10.877389">
        <ele>415.086925</ele>
        <time>2026-05-05T10:47:26.684Z</time>
      </trkpt>
      <trkpt lat="49.137371" lon="10.877413">
        <ele>415.071768</ele>
        <time>2026-05-05T10:47:27.671Z</time>
      </trkpt>
      <trkpt lat="49.137500" lon="10.877510">
        <ele>415.023172</ele>
        <time>2026-05-05T10:47:30.631Z</time>
      </trkpt>
      <trkpt lat="49.137950" lon="10.877768">
        <ele>414.860710</ele>
        <time>2026-05-05T10:47:40.735Z</time>
      </trkpt>
      <trkpt lat="49.138041" lon="10.877785">
        <ele>414.829721</ele>
        <time>2026-05-05T10:47:42.632Z</time>
      </trkpt>
      <trkpt lat="49.138092" lon="10.877731">
        <ele>414.808749</ele>
        <time>2026-05-05T10:47:43.998Z</time>
      </trkpt>
      <trkpt lat="49.138203" lon="10.877378">
        <ele>414.722134</ele>
        <time>2026-05-05T10:47:49.286Z</time>
      </trkpt>
      <trkpt lat="49.138346" lon="10.877125">
        <ele>414.648194</ele>
        <time>2026-05-05T10:47:53.654Z</time>
      </trkpt>
      <trkpt lat="49.138632" lon="10.876603">
        <ele>414.542120</ele>
        <time>2026-05-05T10:48:02.715Z</time>
      </trkpt>
      <trkpt lat="49.138918" lon="10.875974">
        <ele>414.432436</ele>
        <time>2026-05-05T10:48:13.585Z</time>
      </trkpt>
      <trkpt lat="49.139245" lon="10.874550">
        <ele>414.226630</ele>
        <time>2026-05-05T10:48:35.059Z</time>
      </trkpt>
      <trkpt lat="49.139300" lon="10.874315">
        <ele>414.217452</ele>
        <time>2026-05-05T10:48:38.720Z</time>
      </trkpt>
      <trkpt lat="49.139334" lon="10.874033">
        <ele>414.206906</ele>
        <time>2026-05-05T10:48:42.958Z</time>
      </trkpt>
      <trkpt lat="49.139330" lon="10.873704">
        <ele>414.194805</ele>
        <time>2026-05-05T10:48:47.863Z</time>
      </trkpt>
      <trkpt lat="49.139325" lon="10.872949">
        <ele>414.167038</ele>
        <time>2026-05-05T10:48:59.028Z</time>
      </trkpt>
      <trkpt lat="49.139354" lon="10.872738">
        <ele>414.159109</ele>
        <time>2026-05-05T10:49:02.135Z</time>
      </trkpt>
      <trkpt lat="49.139451" lon="10.872500">
        <ele>414.148797</ele>
        <time>2026-05-05T10:49:06.220Z</time>
      </trkpt>
      <trkpt lat="49.139551" lon="10.872427">
        <ele>414.142568</ele>
        <time>2026-05-05T10:49:08.677Z</time>
      </trkpt>
      <trkpt lat="49.139663" lon="10.872391">
        <ele>414.136134</ele>
        <time>2026-05-05T10:49:11.183Z</time>
      </trkpt>
      <trkpt lat="49.140130" lon="10.872362">
        <ele>413.783934</ele>
        <time>2026-05-05T10:49:20.988Z</time>
      </trkpt>
      <trkpt lat="49.140244" lon="10.872385">
        <ele>413.667861</ele>
        <time>2026-05-05T10:49:23.221Z</time>
      </trkpt>
      <trkpt lat="49.140361" lon="10.872479">
        <ele>413.534438</ele>
        <time>2026-05-05T10:49:25.769Z</time>
      </trkpt>
      <trkpt lat="49.140663" lon="10.872938">
        <ele>413.104544</ele>
        <time>2026-05-05T10:49:33.823Z</time>
      </trkpt>
      <trkpt lat="49.140912" lon="10.873298">
        <ele>412.758577</ele>
        <time>2026-05-05T10:49:40.242Z</time>
      </trkpt>
      <trkpt lat="49.140965" lon="10.873497">
        <ele>412.616691</ele>
        <time>2026-05-05T10:49:42.860Z</time>
      </trkpt>
      <trkpt lat="49.141054" lon="10.874964">
        <ele>411.821037</ele>
        <time>2026-05-05T10:50:00.811Z</time>
      </trkpt>
      <trkpt lat="49.141075" lon="10.876072">
        <ele>411.282793</ele>
        <time>2026-05-05T10:50:15.207Z</time>
      </trkpt>
      <trkpt lat="49.141114" lon="10.876754">
        <ele>410.980093</ele>
        <time>2026-05-05T10:50:25.047Z</time>
      </trkpt>
      <trkpt lat="49.141114" lon="10.876759">
        <ele>410.980235</ele>
        <time>2026-05-05T10:50:25.114Z</time>
      </trkpt>
      <trkpt lat="49.141259" lon="10.877261">
        <ele>410.995878</ele>
        <time>2026-05-05T10:50:33.380Z</time>
      </trkpt>
      <trkpt lat="49.141485" lon="10.877823">
        <ele>411.014683</ele>
        <time>2026-05-05T10:50:43.689Z</time>
      </trkpt>
      <trkpt lat="49.141530" lon="10.877997">
        <ele>411.020017</ele>
        <time>2026-05-05T10:50:46.622Z</time>
      </trkpt>
      <trkpt lat="49.141541" lon="10.878134">
        <ele>411.023952</ele>
        <time>2026-05-05T10:50:48.767Z</time>
      </trkpt>
      <trkpt lat="49.141352" lon="10.879316">
        <ele>411.035547</ele>
        <time>2026-05-05T10:51:06.445Z</time>
      </trkpt>
      <trkpt lat="49.141324" lon="10.879700">
        <ele>410.906698</ele>
        <time>2026-05-05T10:51:11.580Z</time>
      </trkpt>
      <trkpt lat="49.141253" lon="10.880207">
        <ele>410.733794</ele>
        <time>2026-05-05T10:51:18.325Z</time>
      </trkpt>
      <trkpt lat="49.140788" lon="10.882192">
        <ele>410.161204</ele>
        <time>2026-05-05T10:51:46.249Z</time>
      </trkpt>
      <trkpt lat="49.140552" lon="10.883473">
        <ele>410.247505</ele>
        <time>2026-05-05T10:52:05.947Z</time>
      </trkpt>
      <trkpt lat="49.140434" lon="10.884645">
        <ele>410.372282</ele>
        <time>2026-05-05T10:52:24.392Z</time>
      </trkpt>
      <trkpt lat="49.140403" lon="10.885209">
        <ele>410.694379</ele>
        <time>2026-05-05T10:52:33.406Z</time>
      </trkpt>
      <trkpt lat="49.140307" lon="10.885619">
        <ele>410.942200</ele>
        <time>2026-05-05T10:52:40.446Z</time>
      </trkpt>
      <trkpt lat="49.140343" lon="10.886054">
        <ele>411.191727</ele>
        <time>2026-05-05T10:52:47.636Z</time>
      </trkpt>
      <trkpt lat="49.140214" lon="10.887453">
        <ele>412.046084</ele>
        <time>2026-05-05T10:53:12.568Z</time>
      </trkpt>
      <trkpt lat="49.140238" lon="10.888538">
        <ele>412.939352</ele>
        <time>2026-05-05T10:53:32.363Z</time>
      </trkpt>
      <trkpt lat="49.140292" lon="10.889218">
        <ele>413.502975</ele>
        <time>2026-05-05T10:53:44.543Z</time>
      </trkpt>
      <trkpt lat="49.140265" lon="10.889950">
        <ele>414.106234</ele>
        <time>2026-05-05T10:53:57.443Z</time>
      </trkpt>
      <trkpt lat="49.140205" lon="10.890756">
        <ele>414.670869</ele>
        <time>2026-05-05T10:54:11.455Z</time>
      </trkpt>
      <trkpt lat="49.140008" lon="10.891839">
        <ele>415.444484</ele>
        <time>2026-05-05T10:54:31.632Z</time>
      </trkpt>
      <trkpt lat="49.139806" lon="10.892474">
        <ele>415.930430</ele>
        <time>2026-05-05T10:54:44.020Z</time>
      </trkpt>
      <trkpt lat="49.139694" lon="10.893033">
        <ele>415.780236</ele>
        <time>2026-05-05T10:54:53.588Z</time>
      </trkpt>
      <trkpt lat="49.139691" lon="10.893158">
        <ele>415.705394</ele>
        <time>2026-05-05T10:54:55.482Z</time>
      </trkpt>
      <trkpt lat="49.139692" lon="10.893311">
        <ele>415.613843</ele>
        <time>2026-05-05T10:54:57.775Z</time>
      </trkpt>
      <trkpt lat="49.139688" lon="10.893536">
        <ele>415.479168</ele>
        <time>2026-05-05T10:55:01.058Z</time>
      </trkpt>
      <trkpt lat="49.139523" lon="10.894470">
        <ele>414.900305</ele>
        <time>2026-05-05T10:55:13.366Z</time>
      </trkpt>
      <trkpt lat="49.139469" lon="10.894774">
        <ele>414.711824</ele>
        <time>2026-05-05T10:55:16.856Z</time>
      </trkpt>
      <trkpt lat="49.139384" lon="10.895517">
        <ele>414.080922</ele>
        <time>2026-05-05T10:55:25.234Z</time>
      </trkpt>
      <trkpt lat="49.139313" lon="10.895663">
        <ele>413.823628</ele>
        <time>2026-05-05T10:55:27.233Z</time>
      </trkpt>
      <trkpt lat="49.139140" lon="10.895744">
        <ele>413.432471</ele>
        <time>2026-05-05T10:55:30.274Z</time>
      </trkpt>
      <trkpt lat="49.139063" lon="10.895601">
        <ele>413.170524</ele>
        <time>2026-05-05T10:55:32.310Z</time>
      </trkpt>
      <trkpt lat="49.138975" lon="10.895550">
        <ele>412.967064</ele>
        <time>2026-05-05T10:55:33.874Z</time>
      </trkpt>
      <trkpt lat="49.139018" lon="10.896063">
        <ele>412.235568</ele>
        <time>2026-05-05T10:55:40.363Z</time>
      </trkpt>
      <trkpt lat="49.138956" lon="10.896608">
        <ele>411.453178</ele>
        <time>2026-05-05T10:55:47.358Z</time>
      </trkpt>
      <trkpt lat="49.138949" lon="10.896678">
        <ele>411.353023</ele>
        <time>2026-05-05T10:55:48.251Z</time>
      </trkpt>
      <trkpt lat="49.138905" lon="10.897092">
        <ele>410.759803</ele>
        <time>2026-05-05T10:55:53.835Z</time>
      </trkpt>
      <trkpt lat="49.138779" lon="10.898032">
        <ele>410.692653</ele>
        <time>2026-05-05T10:56:07.561Z</time>
      </trkpt>
      <trkpt lat="49.138750" lon="10.898295">
        <ele>410.757369</ele>
        <time>2026-05-05T10:56:11.530Z</time>
      </trkpt>
      <trkpt lat="49.138737" lon="10.898853">
        <ele>410.892850</ele>
        <time>2026-05-05T10:56:20.670Z</time>
      </trkpt>
      <trkpt lat="49.138705" lon="10.899085">
        <ele>410.950382</ele>
        <time>2026-05-05T10:56:24.981Z</time>
      </trkpt>
      <trkpt lat="49.138591" lon="10.899458">
        <ele>411.050277</ele>
        <time>2026-05-05T10:56:33.000Z</time>
      </trkpt>
      <trkpt lat="49.138579" lon="10.899580">
        <ele>411.080213</ele>
        <time>2026-05-05T10:56:35.571Z</time>
      </trkpt>
      <trkpt lat="49.138722" lon="10.899914">
        <ele>411.207538</ele>
        <time>2026-05-05T10:56:44.350Z</time>
      </trkpt>
      <trkpt lat="49.139081" lon="10.900772">
        <ele>412.665365</ele>
        <time>2026-05-05T10:57:08.342Z</time>
      </trkpt>
      <trkpt lat="49.139418" lon="10.900990">
        <ele>413.466001</ele>
        <time>2026-05-05T10:57:21.673Z</time>
      </trkpt>
      <trkpt lat="49.139463" lon="10.901796">
        <ele>414.623883</ele>
        <time>2026-05-05T10:57:40.059Z</time>
      </trkpt>
      <trkpt lat="49.139974" lon="10.903786">
        <ele>415.659277</ele>
        <time>2026-05-05T10:58:18.091Z</time>
      </trkpt>
      <trkpt lat="49.140069" lon="10.904538">
        <ele>415.894525</ele>
        <time>2026-05-05T10:58:29.894Z</time>
      </trkpt>
      <trkpt lat="49.140137" lon="10.905530">
        <ele>415.985048</ele>
        <time>2026-05-05T10:58:45.762Z</time>
      </trkpt>
      <trkpt lat="49.140147" lon="10.905626">
        <ele>415.989158</ele>
        <time>2026-05-05T10:58:47.354Z</time>
      </trkpt>
      <trkpt lat="49.140214" lon="10.906309">
        <ele>416.018363</ele>
        <time>2026-05-05T10:58:59.112Z</time>
      </trkpt>
      <trkpt lat="49.140387" lon="10.907378">
        <ele>416.064929</ele>
        <time>2026-05-05T10:59:18.845Z</time>
      </trkpt>
      <trkpt lat="49.140698" lon="10.908249">
        <ele>414.770315</ele>
        <time>2026-05-05T10:59:32.762Z</time>
      </trkpt>
      <trkpt lat="49.140869" lon="10.908657">
        <ele>414.106873</ele>
        <time>2026-05-05T10:59:38.856Z</time>
      </trkpt>
      <trkpt lat="49.140943" lon="10.908778">
        <ele>413.880082</ele>
        <time>2026-05-05T10:59:40.916Z</time>
      </trkpt>
      <trkpt lat="49.141088" lon="10.908983">
        <ele>413.466705</ele>
        <time>2026-05-05T10:59:44.587Z</time>
      </trkpt>
      <trkpt lat="49.141341" lon="10.909256">
        <ele>412.818555</ele>
        <time>2026-05-05T10:59:49.595Z</time>
      </trkpt>
      <trkpt lat="49.141365" lon="10.909277">
        <ele>412.760678</ele>
        <time>2026-05-05T10:59:50.047Z</time>
      </trkpt>
      <trkpt lat="49.141659" lon="10.909537">
        <ele>412.094704</ele>
        <time>2026-05-05T10:59:55.465Z</time>
      </trkpt>
      <trkpt lat="49.142328" lon="10.910028">
        <ele>410.817589</ele>
        <time>2026-05-05T11:00:07.840Z</time>
      </trkpt>
      <trkpt lat="49.142527" lon="10.910175">
        <ele>410.437237</ele>
        <time>2026-05-05T11:00:12.027Z</time>
      </trkpt>
      <trkpt lat="49.142907" lon="10.910551">
        <ele>409.658248</ele>
        <time>2026-05-05T11:00:21.151Z</time>
      </trkpt>
      <trkpt lat="49.143250" lon="10.910995">
        <ele>409.369821</ele>
        <time>2026-05-05T11:00:30.808Z</time>
      </trkpt>
      <trkpt lat="49.143646" lon="10.911682">
        <ele>409.890148</ele>
        <time>2026-05-05T11:00:44.702Z</time>
      </trkpt>
      <trkpt lat="49.143920" lon="10.912333">
        <ele>410.330038</ele>
        <time>2026-05-05T11:00:57.717Z</time>
      </trkpt>
      <trkpt lat="49.144143" lon="10.913039">
        <ele>410.794040</ele>
        <time>2026-05-05T11:01:12.356Z</time>
      </trkpt>
      <trkpt lat="49.144178" lon="10.913134">
        <ele>411.047118</ele>
        <time>2026-05-05T11:01:14.675Z</time>
      </trkpt>
      <trkpt lat="49.144196" lon="10.913448">
        <ele>411.778758</ele>
        <time>2026-05-05T11:01:21.500Z</time>
      </trkpt>
      <trkpt lat="49.144304" lon="10.913494">
        <ele>412.176574</ele>
        <time>2026-05-05T11:01:26.218Z</time>
      </trkpt>
      <trkpt lat="49.144387" lon="10.913282">
        <ele>412.750059</ele>
        <time>2026-05-05T11:01:32.002Z</time>
      </trkpt>
      <trkpt lat="49.144304" lon="10.913494">
        <ele>413.323544</ele>
        <time>2026-05-05T11:01:37.985Z</time>
      </trkpt>
      <trkpt lat="49.144564" lon="10.914076">
        <ele>414.959420</ele>
        <time>2026-05-05T11:01:56.055Z</time>
      </trkpt>
      <trkpt lat="49.144896" lon="10.914671">
        <ele>416.774681</ele>
        <time>2026-05-05T11:02:16.594Z</time>
      </trkpt>
      <trkpt lat="49.145024" lon="10.914855">
        <ele>417.294998</ele>
        <time>2026-05-05T11:02:23.452Z</time>
      </trkpt>
      <trkpt lat="49.145415" lon="10.915407">
        <ele>418.393079</ele>
        <time>2026-05-05T11:02:42.608Z</time>
      </trkpt>
      <trkpt lat="49.145728" lon="10.915628">
        <ele>419.104407</ele>
        <time>2026-05-05T11:02:53.363Z</time>
      </trkpt>
      <trkpt lat="49.146128" lon="10.915869">
        <ele>419.991461</ele>
        <time>2026-05-05T11:03:05.247Z</time>
      </trkpt>
      <trkpt lat="49.146308" lon="10.915994">
        <ele>420.399355</ele>
        <time>2026-05-05T11:03:10.111Z</time>
      </trkpt>
      <trkpt lat="49.147144" lon="10.916591">
        <ele>421.197546</ele>
        <time>2026-05-05T11:03:30.732Z</time>
      </trkpt>
      <trkpt lat="49.147241" lon="10.916680">
        <ele>421.251812</ele>
        <time>2026-05-05T11:03:33.408Z</time>
      </trkpt>
      <trkpt lat="49.147626" lon="10.916999">
        <ele>421.461869</ele>
        <time>2026-05-05T11:03:44.021Z</time>
      </trkpt>
      <trkpt lat="49.148297" lon="10.917559">
        <ele>422.006665</ele>
        <time>2026-05-05T11:04:03.141Z</time>
      </trkpt>
      <trkpt lat="49.148372" lon="10.917621">
        <ele>422.118183</ele>
        <time>2026-05-05T11:04:05.490Z</time>
      </trkpt>
      <trkpt lat="49.148730" lon="10.917922">
        <ele>422.652564</ele>
        <time>2026-05-05T11:04:17.212Z</time>
      </trkpt>
      <trkpt lat="49.149053" lon="10.918081">
        <ele>423.096388</ele>
        <time>2026-05-05T11:04:26.831Z</time>
      </trkpt>
      <trkpt lat="49.149275" lon="10.918208">
        <ele>423.406412</ele>
        <time>2026-05-05T11:04:33.792Z</time>
      </trkpt>
      <trkpt lat="49.149400" lon="10.918380">
        <ele>423.626371</ele>
        <time>2026-05-05T11:04:38.619Z</time>
      </trkpt>
      <trkpt lat="49.149669" lon="10.918888">
        <ele>424.264510</ele>
        <time>2026-05-05T11:04:49.613Z</time>
      </trkpt>
      <trkpt lat="49.149908" lon="10.919378">
        <ele>425.171274</ele>
        <time>2026-05-05T11:05:00.926Z</time>
      </trkpt>
      <trkpt lat="49.150042" lon="10.919565">
        <ele>425.582760</ele>
        <time>2026-05-05T11:05:06.053Z</time>
      </trkpt>
      <trkpt lat="49.150473" lon="10.919903">
        <ele>426.681378</ele>
        <time>2026-05-05T11:05:20.814Z</time>
      </trkpt>
      <trkpt lat="49.150793" lon="10.920172">
        <ele>427.509619</ele>
        <time>2026-05-05T11:05:33.428Z</time>
      </trkpt>
      <trkpt lat="49.150928" lon="10.920344">
        <ele>427.908181</ele>
        <time>2026-05-05T11:05:39.689Z</time>
      </trkpt>
      <trkpt lat="49.151293" lon="10.920923">
        <ele>430.932697</ele>
        <time>2026-05-05T11:06:00.463Z</time>
      </trkpt>
      <trkpt lat="49.151520" lon="10.921476">
        <ele>433.780834</ele>
        <time>2026-05-05T11:06:21.162Z</time>
      </trkpt>
      <trkpt lat="49.151628" lon="10.921947">
        <ele>435.958114</ele>
        <time>2026-05-05T11:06:38.287Z</time>
      </trkpt>
      <trkpt lat="49.151691" lon="10.922063">
        <ele>436.615858</ele>
        <time>2026-05-05T11:06:43.704Z</time>
      </trkpt>
      <trkpt lat="49.151763" lon="10.922005">
        <ele>437.158652</ele>
        <time>2026-05-05T11:06:48.253Z</time>
      </trkpt>
      <trkpt lat="49.151849" lon="10.921798">
        <ele>438.228429</ele>
        <time>2026-05-05T11:06:57.368Z</time>
      </trkpt>
      <trkpt lat="49.151868" lon="10.921488">
        <ele>439.586678</ele>
        <time>2026-05-05T11:07:09.318Z</time>
      </trkpt>
      <trkpt lat="49.151927" lon="10.921375">
        <ele>440.221158</ele>
        <time>2026-05-05T11:07:14.979Z</time>
      </trkpt>
      <trkpt lat="49.152024" lon="10.921406">
        <ele>440.920772</ele>
        <time>2026-05-05T11:07:21.057Z</time>
      </trkpt>
      <trkpt lat="49.152082" lon="10.921864">
        <ele>443.074900</ele>
        <time>2026-05-05T11:07:40.587Z</time>
      </trkpt>
      <trkpt lat="49.152362" lon="10.922781">
        <ele>447.747910</ele>
        <time>2026-05-05T11:08:20.019Z</time>
      </trkpt>
      <trkpt lat="49.152530" lon="10.922979">
        <ele>449.245460</ele>
        <time>2026-05-05T11:08:30.859Z</time>
      </trkpt>
      <trkpt lat="49.152748" lon="10.923026">
        <ele>450.799753</ele>
        <time>2026-05-05T11:08:41.248Z</time>
      </trkpt>
      <trkpt lat="49.152706" lon="10.920955">
        <ele>455.036594</ele>
        <time>2026-05-05T11:09:41.458Z</time>
      </trkpt>
      <trkpt lat="49.152745" lon="10.920543">
        <ele>455.595372</ele>
        <time>2026-05-05T11:09:52.106Z</time>
      </trkpt>
      <trkpt lat="49.152847" lon="10.920271">
        <ele>456.016223</ele>
        <time>2026-05-05T11:10:00.702Z</time>
      </trkpt>
      <trkpt lat="49.152992" lon="10.920037">
        <ele>456.448896</ele>
        <time>2026-05-05T11:10:10.073Z</time>
      </trkpt>
      <trkpt lat="49.153248" lon="10.919908">
        <ele>457.294616</ele>
        <time>2026-05-05T11:10:22.668Z</time>
      </trkpt>
      <trkpt lat="49.153489" lon="10.919908">
        <ele>458.104572</ele>
        <time>2026-05-05T11:10:34.575Z</time>
      </trkpt>
      <trkpt lat="49.153714" lon="10.920031">
        <ele>458.907636</ele>
        <time>2026-05-05T11:10:46.964Z</time>
      </trkpt>
      <trkpt lat="49.154480" lon="10.920860">
        <ele>462.061658</ele>
        <time>2026-05-05T11:11:36.870Z</time>
      </trkpt>
      <trkpt lat="49.154778" lon="10.921273">
        <ele>463.403742</ele>
        <time>2026-05-05T11:11:57.681Z</time>
      </trkpt>
      <trkpt lat="49.156125" lon="10.923341">
        <ele>469.660571</ele>
        <time>2026-05-05T11:13:32.983Z</time>
      </trkpt>
      <trkpt lat="49.156568" lon="10.924212">
        <ele>471.888027</ele>
        <time>2026-05-05T11:14:08.602Z</time>
      </trkpt>
      <trkpt lat="49.156948" lon="10.924781">
        <ele>473.529751</ele>
        <time>2026-05-05T11:14:34.605Z</time>
      </trkpt>
      <trkpt lat="49.157153" lon="10.925200">
        <ele>474.540871</ele>
        <time>2026-05-05T11:14:51.369Z</time>
      </trkpt>
      <trkpt lat="49.157312" lon="10.925243">
        <ele>474.991488</ele>
        <time>2026-05-05T11:14:59.351Z</time>
      </trkpt>
      <trkpt lat="49.157530" lon="10.925033">
        <ele>475.710534</ele>
        <time>2026-05-05T11:15:12.191Z</time>
      </trkpt>
      <trkpt lat="49.157596" lon="10.925057">
        <ele>475.899861</ele>
        <time>2026-05-05T11:15:15.598Z</time>
      </trkpt>
      <trkpt lat="49.157636" lon="10.925072">
        <ele>476.014799</ele>
        <time>2026-05-05T11:15:17.684Z</time>
      </trkpt>
      <trkpt lat="49.158274" lon="10.925799">
        <ele>478.235310</ele>
        <time>2026-05-05T11:15:57.385Z</time>
      </trkpt>
      <trkpt lat="49.158529" lon="10.926179">
        <ele>479.150460</ele>
        <time>2026-05-05T11:16:14.037Z</time>
      </trkpt>
      <trkpt lat="49.158706" lon="10.926166">
        <ele>479.235770</ele>
        <time>2026-05-05T11:16:22.091Z</time>
      </trkpt>
      <trkpt lat="49.158302" lon="10.922064">
        <ele>480.000000</ele>
        <time>2026-05-05T11:17:24.955Z</time>
      </trkpt>
      <trkpt lat="49.157812" lon="10.919218">
        <ele>480.166045</ele>
        <time>2026-05-05T11:18:09.455Z</time>
      </trkpt>
      <trkpt lat="49.156822" lon="10.915408">
        <ele>481.352646</ele>
        <time>2026-05-05T11:19:15.921Z</time>
      </trkpt>
      <trkpt lat="49.156640" lon="10.915459">
        <ele>481.531987</ele>
        <time>2026-05-05T11:19:20.816Z</time>
      </trkpt>
      <trkpt lat="49.156625" lon="10.915326">
        <ele>481.617537</ele>
        <time>2026-05-05T11:19:23.259Z</time>
      </trkpt>
      <trkpt lat="49.157921" lon="10.915025">
        <ele>482.716807</ele>
        <time>2026-05-05T11:19:59.339Z</time>
      </trkpt>
      <trkpt lat="49.158601" lon="10.914804">
        <ele>482.404661</ele>
        <time>2026-05-05T11:20:15.538Z</time>
      </trkpt>
      <trkpt lat="49.159134" lon="10.914576">
        <ele>482.156151</ele>
        <time>2026-05-05T11:20:26.304Z</time>
      </trkpt>
      <trkpt lat="49.160216" lon="10.913953">
        <ele>480.480668</ele>
        <time>2026-05-05T11:20:46.985Z</time>
      </trkpt>
      <trkpt lat="49.160762" lon="10.913690">
        <ele>479.313034</ele>
        <time>2026-05-05T11:20:57.011Z</time>
      </trkpt>
      <trkpt lat="49.161583" lon="10.913499">
        <ele>476.780406</ele>
        <time>2026-05-05T11:21:11.289Z</time>
      </trkpt>
      <trkpt lat="49.161663" lon="10.913446">
        <ele>476.381777</ele>
        <time>2026-05-05T11:21:12.785Z</time>
      </trkpt>
      <trkpt lat="49.161792" lon="10.913268">
        <ele>475.587342</ele>
        <time>2026-05-05T11:21:15.727Z</time>
      </trkpt>
      <trkpt lat="49.161890" lon="10.913315">
        <ele>475.117744</ele>
        <time>2026-05-05T11:21:17.417Z</time>
      </trkpt>
      <trkpt lat="49.162105" lon="10.913437">
        <ele>474.069219</ele>
        <time>2026-05-05T11:21:21.147Z</time>
      </trkpt>
      <trkpt lat="49.162203" lon="10.913476">
        <ele>473.606216</ele>
        <time>2026-05-05T11:21:22.754Z</time>
      </trkpt>
      <trkpt lat="49.162454" lon="10.913498">
        <ele>472.456701</ele>
        <time>2026-05-05T11:21:26.727Z</time>
      </trkpt>
      <trkpt lat="49.162648" lon="10.913576">
        <ele>471.539542</ele>
        <time>2026-05-05T11:21:29.825Z</time>
      </trkpt>
      <trkpt lat="49.162785" lon="10.913688">
        <ele>470.829257</ele>
        <time>2026-05-05T11:21:32.212Z</time>
      </trkpt>
      <trkpt lat="49.162993" lon="10.913990">
        <ele>469.110867</ele>
        <time>2026-05-05T11:21:36.563Z</time>
      </trkpt>
      <trkpt lat="49.163134" lon="10.914046">
        <ele>467.954566</ele>
        <time>2026-05-05T11:21:38.739Z</time>
      </trkpt>
      <trkpt lat="49.163232" lon="10.913714">
        <ele>466.063945</ele>
        <time>2026-05-05T11:21:42.265Z</time>
      </trkpt>
      <trkpt lat="49.163484" lon="10.912565">
        <ele>459.773783</ele>
        <time>2026-05-05T11:21:53.787Z</time>
      </trkpt>
      <trkpt lat="49.163558" lon="10.912357">
        <ele>458.544762</ele>
        <time>2026-05-05T11:21:56.059Z</time>
      </trkpt>
      <trkpt lat="49.163923" lon="10.911722">
        <ele>453.238137</ele>
        <time>2026-05-05T11:22:04.216Z</time>
      </trkpt>
      <trkpt lat="49.163942" lon="10.911670">
        <ele>452.755576</ele>
        <time>2026-05-05T11:22:04.806Z</time>
      </trkpt>
      <trkpt lat="49.164085" lon="10.911663">
        <ele>450.983053</ele>
        <time>2026-05-05T11:22:07.530Z</time>
      </trkpt>
      <trkpt lat="49.164093" lon="10.911938">
        <ele>448.753060</ele>
        <time>2026-05-05T11:22:11.973Z</time>
      </trkpt>
      <trkpt lat="49.164052" lon="10.912164">
        <ele>446.853066</ele>
        <time>2026-05-05T11:22:15.658Z</time>
      </trkpt>
      <trkpt lat="49.163864" lon="10.912420">
        <ele>443.734454</ele>
        <time>2026-05-05T11:22:21.621Z</time>
      </trkpt>
      <trkpt lat="49.163962" lon="10.912794">
        <ele>440.470440</ele>
        <time>2026-05-05T11:22:27.763Z</time>
      </trkpt>
      <trkpt lat="49.164077" lon="10.912986">
        <ele>438.361145</ele>
        <time>2026-05-05T11:22:31.700Z</time>
      </trkpt>
      <trkpt lat="49.164481" lon="10.913433">
        <ele>431.992024</ele>
        <time>2026-05-05T11:22:43.170Z</time>
      </trkpt>
      <trkpt lat="49.164685" lon="10.913658">
        <ele>428.426707</ele>
        <time>2026-05-05T11:22:48.906Z</time>
      </trkpt>
      <trkpt lat="49.164951" lon="10.913780">
        <ele>424.490202</ele>
        <time>2026-05-05T11:22:55.219Z</time>
      </trkpt>
      <trkpt lat="49.165141" lon="10.913817">
        <ele>421.775176</ele>
        <time>2026-05-05T11:22:59.586Z</time>
      </trkpt>
      <trkpt lat="49.165496" lon="10.914039">
        <ele>416.338554</ele>
        <time>2026-05-05T11:23:08.440Z</time>
      </trkpt>
      <trkpt lat="49.165856" lon="10.914585">
        <ele>409.151602</ele>
        <time>2026-05-05T11:23:20.523Z</time>
      </trkpt>
      <trkpt lat="49.165927" lon="10.914649">
        <ele>408.002329</ele>
        <time>2026-05-05T11:23:22.546Z</time>
      </trkpt>
      <trkpt lat="49.166062" lon="10.914713">
        <ele>407.198925</ele>
        <time>2026-05-05T11:23:24.564Z</time>
      </trkpt>
      <trkpt lat="49.166106" lon="10.914775">
        <ele>406.858840</ele>
        <time>2026-05-05T11:23:25.420Z</time>
      </trkpt>
      <trkpt lat="49.166172" lon="10.914867">
        <ele>406.351224</ele>
        <time>2026-05-05T11:23:26.713Z</time>
      </trkpt>
      <trkpt lat="49.166303" lon="10.915385">
        <ele>404.286948</ele>
        <time>2026-05-05T11:23:32.086Z</time>
      </trkpt>
      <trkpt lat="49.166462" lon="10.915629">
        <ele>403.006591</ele>
        <time>2026-05-05T11:23:35.571Z</time>
      </trkpt>
      <trkpt lat="49.166644" lon="10.915801">
        <ele>401.790466</ele>
        <time>2026-05-05T11:23:39.015Z</time>
      </trkpt>
      <trkpt lat="49.166803" lon="10.915885">
        <ele>400.834257</ele>
        <time>2026-05-05T11:23:41.799Z</time>
      </trkpt>
      <trkpt lat="49.167161" lon="10.915927">
        <ele>398.793298</ele>
        <time>2026-05-05T11:23:48.204Z</time>
      </trkpt>
      <trkpt lat="49.167285" lon="10.915973">
        <ele>398.068006</ele>
        <time>2026-05-05T11:23:50.617Z</time>
      </trkpt>
      <trkpt lat="49.167455" lon="10.916079">
        <ele>397.308641</ele>
        <time>2026-05-05T11:23:54.282Z</time>
      </trkpt>
      <trkpt lat="49.167614" lon="10.916241">
        <ele>396.625269</ele>
        <time>2026-05-05T11:23:58.092Z</time>
      </trkpt>
      <trkpt lat="49.168034" lon="10.916870">
        <ele>394.522670</ele>
        <time>2026-05-05T11:24:09.039Z</time>
      </trkpt>
      <trkpt lat="49.168287" lon="10.917296">
        <ele>393.176734</ele>
        <time>2026-05-05T11:24:15.474Z</time>
      </trkpt>
      <trkpt lat="49.168548" lon="10.917877">
        <ele>391.528141</ele>
        <time>2026-05-05T11:24:22.700Z</time>
      </trkpt>
      <trkpt lat="49.168960" lon="10.918864">
        <ele>386.553742</ele>
        <time>2026-05-05T11:24:33.858Z</time>
      </trkpt>
      <trkpt lat="49.169386" lon="10.919772">
        <ele>381.664468</ele>
        <time>2026-05-05T11:24:44.222Z</time>
      </trkpt>
      <trkpt lat="49.169499" lon="10.920077">
        <ele>380.130798</ele>
        <time>2026-05-05T11:24:47.595Z</time>
      </trkpt>
      <trkpt lat="49.170015" lon="10.920138">
        <ele>378.775153</ele>
        <time>2026-05-05T11:25:02.231Z</time>
      </trkpt>
      <trkpt lat="49.170594" lon="10.919946">
        <ele>377.957949</ele>
        <time>2026-05-05T11:25:21.765Z</time>
      </trkpt>
      <trkpt lat="49.170774" lon="10.919844">
        <ele>377.693172</ele>
        <time>2026-05-05T11:25:28.696Z</time>
      </trkpt>
      <trkpt lat="49.171149" lon="10.921162">
        <ele>376.963781</ele>
        <time>2026-05-05T11:25:53.550Z</time>
      </trkpt>
      <trkpt lat="49.171266" lon="10.921385">
        <ele>377.034775</ele>
        <time>2026-05-05T11:25:58.304Z</time>
      </trkpt>
      <trkpt lat="49.171779" lon="10.922002">
        <ele>377.282615</ele>
        <time>2026-05-05T11:26:13.716Z</time>
      </trkpt>
      <trkpt lat="49.171887" lon="10.922230">
        <ele>377.352522</ele>
        <time>2026-05-05T11:26:18.288Z</time>
      </trkpt>
      <trkpt lat="49.172015" lon="10.922400">
        <ele>377.416901</ele>
        <time>2026-05-05T11:26:22.489Z</time>
      </trkpt>
      <trkpt lat="49.172280" lon="10.922761">
        <ele>377.395226</ele>
        <time>2026-05-05T11:26:31.025Z</time>
      </trkpt>
      <trkpt lat="49.172640" lon="10.923219">
        <ele>376.550270</ele>
        <time>2026-05-05T11:26:39.630Z</time>
      </trkpt>
      <trkpt lat="49.172979" lon="10.923550">
        <ele>375.824537</ele>
        <time>2026-05-05T11:26:46.365Z</time>
      </trkpt>
      <trkpt lat="49.173052" lon="10.923694">
        <ele>375.609568</ele>
        <time>2026-05-05T11:26:48.374Z</time>
      </trkpt>
      <trkpt lat="49.173090" lon="10.923716">
        <ele>375.536250</ele>
        <time>2026-05-05T11:26:49.103Z</time>
      </trkpt>
      <trkpt lat="49.173161" lon="10.924825">
        <ele>374.224380</ele>
        <time>2026-05-05T11:27:01.631Z</time>
      </trkpt>
      <trkpt lat="49.173174" lon="10.924842">
        <ele>374.194979</ele>
        <time>2026-05-05T11:27:01.964Z</time>
      </trkpt>
      <trkpt lat="49.173307" lon="10.925022">
        <ele>373.889710</ele>
        <time>2026-05-05T11:27:05.261Z</time>
      </trkpt>
      <trkpt lat="49.173426" lon="10.925115">
        <ele>373.659999</ele>
        <time>2026-05-05T11:27:07.703Z</time>
      </trkpt>
      <trkpt lat="49.173617" lon="10.925306">
        <ele>373.267735</ele>
        <time>2026-05-05T11:27:11.897Z</time>
      </trkpt>
      <trkpt lat="49.173758" lon="10.925535">
        <ele>372.914215</ele>
        <time>2026-05-05T11:27:15.779Z</time>
      </trkpt>
      <trkpt lat="49.173814" lon="10.925579">
        <ele>372.805995</ele>
        <time>2026-05-05T11:27:17.026Z</time>
      </trkpt>
      <trkpt lat="49.173828" lon="10.925588">
        <ele>372.779891</ele>
        <time>2026-05-05T11:27:17.419Z</time>
      </trkpt>
      <trkpt lat="49.174142" lon="10.925569">
        <ele>372.239710</ele>
        <time>2026-05-05T11:27:23.873Z</time>
      </trkpt>
      <trkpt lat="49.174235" lon="10.925475">
        <ele>372.048096</ele>
        <time>2026-05-05T11:27:26.184Z</time>
      </trkpt>
      <trkpt lat="49.174374" lon="10.925572">
        <ele>371.785467</ele>
        <time>2026-05-05T11:27:29.242Z</time>
      </trkpt>
      <trkpt lat="49.174652" lon="10.925785">
        <ele>371.250994</ele>
        <time>2026-05-05T11:27:35.160Z</time>
      </trkpt>
      <trkpt lat="49.174739" lon="10.925588">
        <ele>370.801294</ele>
        <time>2026-05-05T11:27:37.885Z</time>
      </trkpt>
      <trkpt lat="49.174827" lon="10.925390">
        <ele>370.290521</ele>
        <time>2026-05-05T11:27:40.575Z</time>
      </trkpt>
      <trkpt lat="49.174933" lon="10.925233">
        <ele>369.809033</ele>
        <time>2026-05-05T11:27:43.052Z</time>
      </trkpt>
      <trkpt lat="49.175074" lon="10.925102">
        <ele>369.270694</ele>
        <time>2026-05-05T11:27:45.753Z</time>
      </trkpt>
      <trkpt lat="49.175284" lon="10.925018">
        <ele>368.562371</ele>
        <time>2026-05-05T11:27:49.213Z</time>
      </trkpt>
      <trkpt lat="49.175312" lon="10.925014">
        <ele>368.470603</ele>
        <time>2026-05-05T11:27:49.655Z</time>
      </trkpt>
      <trkpt lat="49.175467" lon="10.924997">
        <ele>367.963502</ele>
        <time>2026-05-05T11:27:52.115Z</time>
      </trkpt>
      <trkpt lat="49.175755" lon="10.924963">
        <ele>367.020895</ele>
        <time>2026-05-05T11:27:56.672Z</time>
      </trkpt>
      <trkpt lat="49.176292" lon="10.924860">
        <ele>365.280567</ele>
        <time>2026-05-05T11:28:05.125Z</time>
      </trkpt>
      <trkpt lat="49.176567" lon="10.924890">
        <ele>364.749823</ele>
        <time>2026-05-05T11:28:09.485Z</time>
      </trkpt>
      <trkpt lat="49.176671" lon="10.924860">
        <ele>364.546085</ele>
        <time>2026-05-05T11:28:11.197Z</time>
      </trkpt>
      <trkpt lat="49.176783" lon="10.924774">
        <ele>364.304835</ele>
        <time>2026-05-05T11:28:13.236Z</time>
      </trkpt>
      <trkpt lat="49.176831" lon="10.924660">
        <ele>364.134185</ele>
        <time>2026-05-05T11:28:14.707Z</time>
      </trkpt>
      <trkpt lat="49.176895" lon="10.924684">
        <ele>364.007331</ele>
        <time>2026-05-05T11:28:15.809Z</time>
      </trkpt>
      <trkpt lat="49.177090" lon="10.924558">
        <ele>363.599822</ele>
        <time>2026-05-05T11:28:19.389Z</time>
      </trkpt>
      <trkpt lat="49.177371" lon="10.924451">
        <ele>363.042363</ele>
        <time>2026-05-05T11:28:24.624Z</time>
      </trkpt>
      <trkpt lat="49.177694" lon="10.924324">
        <ele>362.400347</ele>
        <time>2026-05-05T11:28:31.323Z</time>
      </trkpt>
      <trkpt lat="49.177749" lon="10.924240">
        <ele>362.250730</ele>
        <time>2026-05-05T11:28:33.015Z</time>
      </trkpt>
      <trkpt lat="49.177858" lon="10.924271">
        <ele>362.037299</ele>
        <time>2026-05-05T11:28:35.541Z</time>
      </trkpt>
      <trkpt lat="49.177970" lon="10.924048">
        <ele>361.909540</ele>
        <time>2026-05-05T11:28:39.843Z</time>
      </trkpt>
      <trkpt lat="49.178253" lon="10.923625">
        <ele>362.151258</ele>
        <time>2026-05-05T11:28:50.062Z</time>
      </trkpt>
      <trkpt lat="49.178778" lon="10.922943">
        <ele>362.572030</ele>
        <time>2026-05-05T11:29:08.710Z</time>
      </trkpt>
      <trkpt lat="49.179528" lon="10.922149">
        <ele>362.828882</ele>
        <time>2026-05-05T11:29:32.423Z</time>
      </trkpt>
      <trkpt lat="49.179773" lon="10.921868">
        <ele>362.695533</ele>
        <time>2026-05-05T11:29:39.445Z</time>
      </trkpt>
      <trkpt lat="49.180405" lon="10.920972">
        <ele>362.320295</ele>
        <time>2026-05-05T11:29:57.664Z</time>
      </trkpt>
      <trkpt lat="49.180687" lon="10.920458">
        <ele>362.091374</ele>
        <time>2026-05-05T11:30:06.221Z</time>
      </trkpt>
      <trkpt lat="49.180684" lon="10.920044">
        <ele>361.865461</ele>
        <time>2026-05-05T11:30:11.217Z</time>
      </trkpt>
      <trkpt lat="49.180831" lon="10.918977">
        <ele>361.270463</ele>
        <time>2026-05-05T11:30:24.733Z</time>
      </trkpt>
      <trkpt lat="49.181153" lon="10.917410">
        <ele>360.686820</ele>
        <time>2026-05-05T11:30:47.054Z</time>
      </trkpt>
      <trkpt lat="49.181447" lon="10.916342">
        <ele>360.724568</ele>
        <time>2026-05-05T11:31:04.229Z</time>
      </trkpt>
      <trkpt lat="49.181574" lon="10.915888">
        <ele>360.740654</ele>
        <time>2026-05-05T11:31:11.664Z</time>
      </trkpt>
      <trkpt lat="49.182246" lon="10.913446">
        <ele>361.228369</ele>
        <time>2026-05-05T11:31:53.034Z</time>
      </trkpt>
      <trkpt lat="49.182782" lon="10.911995">
        <ele>362.696407</ele>
        <time>2026-05-05T11:32:18.102Z</time>
      </trkpt>
      <trkpt lat="49.183083" lon="10.911221">
        <ele>363.877551</ele>
        <time>2026-05-05T11:32:33.167Z</time>
      </trkpt>
      <trkpt lat="49.182789" lon="10.910848">
        <ele>364.643874</ele>
        <time>2026-05-05T11:32:53.541Z</time>
      </trkpt>
      <trkpt lat="49.182609" lon="10.910520">
        <ele>365.627455</ele>
        <time>2026-05-05T11:33:09.715Z</time>
      </trkpt>
      <trkpt lat="49.182429" lon="10.910187">
        <ele>367.280292</ele>
        <time>2026-05-05T11:33:27.270Z</time>
      </trkpt>
      <trkpt lat="49.182279" lon="10.909908">
        <ele>368.662085</ele>
        <time>2026-05-05T11:33:42.740Z</time>
      </trkpt>
      <trkpt lat="49.182100" lon="10.909727">
        <ele>369.917676</ele>
        <time>2026-05-05T11:33:57.126Z</time>
      </trkpt>
      <trkpt lat="49.181977" lon="10.909442">
        <ele>371.223996</ele>
        <time>2026-05-05T11:34:12.386Z</time>
      </trkpt>
      <trkpt lat="49.181876" lon="10.909299">
        <ele>372.029295</ele>
        <time>2026-05-05T11:34:21.598Z</time>
      </trkpt>
      <trkpt lat="49.181809" lon="10.909242">
        <ele>372.477909</ele>
        <time>2026-05-05T11:34:26.734Z</time>
      </trkpt>
      <trkpt lat="49.181720" lon="10.909217">
        <ele>373.007423</ele>
        <time>2026-05-05T11:34:32.709Z</time>
      </trkpt>
      <trkpt lat="49.181541" lon="10.909232">
        <ele>374.056459</ele>
        <time>2026-05-05T11:34:44.099Z</time>
      </trkpt>
      <trkpt lat="49.181316" lon="10.909185">
        <ele>375.385324</ele>
        <time>2026-05-05T11:34:56.842Z</time>
      </trkpt>
      <trkpt lat="49.181197" lon="10.909061">
        <ele>375.695884</ele>
        <time>2026-05-05T11:35:03.997Z</time>
      </trkpt>
      <trkpt lat="49.181332" lon="10.908648">
        <ele>376.152067</ele>
        <time>2026-05-05T11:35:13.206Z</time>
      </trkpt>
      <trkpt lat="49.181511" lon="10.908262">
        <ele>376.619619</ele>
        <time>2026-05-05T11:35:21.209Z</time>
      </trkpt>
      <trkpt lat="49.182155" lon="10.907177">
        <ele>378.067468</ele>
        <time>2026-05-05T11:35:43.162Z</time>
      </trkpt>
      <trkpt lat="49.183145" lon="10.905432">
        <ele>379.906572</ele>
        <time>2026-05-05T11:36:26.456Z</time>
      </trkpt>
      <trkpt lat="49.183738" lon="10.904332">
        <ele>379.693207</ele>
        <time>2026-05-05T11:36:49.957Z</time>
      </trkpt>
      <trkpt lat="49.183861" lon="10.903978">
        <ele>379.358439</ele>
        <time>2026-05-05T11:36:54.991Z</time>
      </trkpt>
      <trkpt lat="49.183943" lon="10.903607">
        <ele>379.031414</ele>
        <time>2026-05-05T11:36:59.577Z</time>
      </trkpt>
      <trkpt lat="49.183966" lon="10.903132">
        <ele>378.633692</ele>
        <time>2026-05-05T11:37:04.894Z</time>
      </trkpt>
      <trkpt lat="49.183909" lon="10.902045">
        <ele>377.446600</ele>
        <time>2026-05-05T11:37:16.548Z</time>
      </trkpt>
      <trkpt lat="49.183913" lon="10.901139">
        <ele>376.105840</ele>
        <time>2026-05-05T11:37:26.345Z</time>
      </trkpt>
      <trkpt lat="49.183929" lon="10.900550">
        <ele>375.233466</ele>
        <time>2026-05-05T11:37:32.901Z</time>
      </trkpt>
      <trkpt lat="49.183974" lon="10.900025">
        <ele>374.449903</ele>
        <time>2026-05-05T11:37:39.174Z</time>
      </trkpt>
      <trkpt lat="49.184132" lon="10.899169">
        <ele>373.962385</ele>
        <time>2026-05-05T11:37:50.631Z</time>
      </trkpt>
      <trkpt lat="49.184464" lon="10.897891">
        <ele>373.853944</ele>
        <time>2026-05-05T11:38:10.337Z</time>
      </trkpt>
      <trkpt lat="49.184932" lon="10.896599">
        <ele>374.025292</ele>
        <time>2026-05-05T11:38:34.375Z</time>
      </trkpt>
      <trkpt lat="49.185396" lon="10.895101">
        <ele>374.583917</ele>
        <time>2026-05-05T11:39:00.436Z</time>
      </trkpt>
      <trkpt lat="49.185689" lon="10.894129">
        <ele>375.010620</ele>
        <time>2026-05-05T11:39:17.432Z</time>
      </trkpt>
      <trkpt lat="49.185919" lon="10.893455">
        <ele>375.341912</ele>
        <time>2026-05-05T11:39:29.777Z</time>
      </trkpt>
      <trkpt lat="49.186819" lon="10.891276">
        <ele>376.523981</ele>
        <time>2026-05-05T11:40:12.858Z</time>
      </trkpt>
      <trkpt lat="49.187398" lon="10.889394">
        <ele>377.738683</ele>
        <time>2026-05-05T11:40:46.629Z</time>
      </trkpt>
      <trkpt lat="49.187658" lon="10.888281">
        <ele>378.736526</ele>
        <time>2026-05-05T11:41:05.744Z</time>
      </trkpt>
      <trkpt lat="49.188102" lon="10.886956">
        <ele>380.091367</ele>
        <time>2026-05-05T11:41:36.007Z</time>
      </trkpt>
      <trkpt lat="49.188217" lon="10.886459">
        <ele>380.639245</ele>
        <time>2026-05-05T11:41:48.138Z</time>
      </trkpt>
      <trkpt lat="49.188249" lon="10.885704">
        <ele>381.425464</ele>
        <time>2026-05-05T11:42:05.152Z</time>
      </trkpt>
      <trkpt lat="49.188281" lon="10.885454">
        <ele>381.690191</ele>
        <time>2026-05-05T11:42:10.021Z</time>
      </trkpt>
      <trkpt lat="49.188327" lon="10.885295">
        <ele>381.870883</ele>
        <time>2026-05-05T11:42:12.936Z</time>
      </trkpt>
      <trkpt lat="49.188383" lon="10.885194">
        <ele>382.008518</ele>
        <time>2026-05-05T11:42:14.863Z</time>
      </trkpt>
      <trkpt lat="49.188312" lon="10.885067">
        <ele>382.182187</ele>
        <time>2026-05-05T11:42:17.835Z</time>
      </trkpt>
      <trkpt lat="49.188275" lon="10.884816">
        <ele>382.397679</ele>
        <time>2026-05-05T11:42:21.202Z</time>
      </trkpt>
      <trkpt lat="49.188327" lon="10.883740">
        <ele>380.562329</ele>
        <time>2026-05-05T11:42:32.947Z</time>
      </trkpt>
      <trkpt lat="49.188330" lon="10.883628">
        <ele>380.371650</ele>
        <time>2026-05-05T11:42:34.106Z</time>
      </trkpt>
      <trkpt lat="49.188417" lon="10.882386">
        <ele>378.246823</ele>
        <time>2026-05-05T11:42:46.839Z</time>
      </trkpt>
      <trkpt lat="49.188795" lon="10.880266">
        <ele>377.282270</ele>
        <time>2026-05-05T11:43:13.943Z</time>
      </trkpt>
      <trkpt lat="49.188954" lon="10.879448">
        <ele>377.081224</ele>
        <time>2026-05-05T11:43:30.717Z</time>
      </trkpt>
      <trkpt lat="49.189021" lon="10.878338">
        <ele>378.290238</ele>
        <time>2026-05-05T11:43:53.522Z</time>
      </trkpt>
      <trkpt lat="49.189048" lon="10.877427">
        <ele>379.279309</ele>
        <time>2026-05-05T11:44:10.953Z</time>
      </trkpt>
      <trkpt lat="49.189020" lon="10.876448">
        <ele>380.213272</ele>
        <time>2026-05-05T11:44:28.073Z</time>
      </trkpt>
      <trkpt lat="49.188989" lon="10.875632">
        <ele>380.695424</ele>
        <time>2026-05-05T11:44:41.755Z</time>
      </trkpt>
      <trkpt lat="49.188825" lon="10.873234">
        <ele>381.801267</ele>
        <time>2026-05-05T11:45:21.971Z</time>
      </trkpt>
      <trkpt lat="49.188812" lon="10.872504">
        <ele>381.918480</ele>
        <time>2026-05-05T11:45:33.388Z</time>
      </trkpt>
      <trkpt lat="49.188838" lon="10.872057">
        <ele>381.990509</ele>
        <time>2026-05-05T11:45:40.200Z</time>
      </trkpt>
      <trkpt lat="49.188885" lon="10.871720">
        <ele>382.045817</ele>
        <time>2026-05-05T11:45:45.326Z</time>
      </trkpt>
      <trkpt lat="49.190078" lon="10.866969">
        <ele>380.996173</ele>
        <time>2026-05-05T11:46:52.736Z</time>
      </trkpt>
      <trkpt lat="49.190189" lon="10.866185">
        <ele>380.940015</ele>
        <time>2026-05-05T11:47:05.056Z</time>
      </trkpt>
      <trkpt lat="49.190336" lon="10.864336">
        <ele>382.167440</ele>
        <time>2026-05-05T11:47:40.530Z</time>
      </trkpt>
      <trkpt lat="49.190406" lon="10.863858">
        <ele>382.511331</ele>
        <time>2026-05-05T11:47:49.487Z</time>
      </trkpt>
      <trkpt lat="49.191121" lon="10.861263">
        <ele>382.600731</ele>
        <time>2026-05-05T11:48:28.986Z</time>
      </trkpt>
      <trkpt lat="49.191275" lon="10.860802">
        <ele>382.547311</ele>
        <time>2026-05-05T11:48:35.694Z</time>
      </trkpt>
      <trkpt lat="49.191762" lon="10.859435">
        <ele>382.482925</ele>
        <time>2026-05-05T11:48:57.267Z</time>
      </trkpt>
      <trkpt lat="49.192215" lon="10.858394">
        <ele>382.524609</ele>
        <time>2026-05-05T11:49:16.230Z</time>
      </trkpt>
      <trkpt lat="49.192440" lon="10.857736">
        <ele>383.012934</ele>
        <time>2026-05-05T11:49:27.985Z</time>
      </trkpt>
      <trkpt lat="49.192621" lon="10.857017">
        <ele>383.519584</ele>
        <time>2026-05-05T11:49:41.534Z</time>
      </trkpt>
      <trkpt lat="49.192648" lon="10.856894">
        <ele>383.604904</ele>
        <time>2026-05-05T11:49:43.871Z</time>
      </trkpt>
      <trkpt lat="49.192680" lon="10.856637">
        <ele>383.776936</ele>
        <time>2026-05-05T11:49:48.789Z</time>
      </trkpt>
      <trkpt lat="49.192690" lon="10.856498">
        <ele>383.868889</ele>
        <time>2026-05-05T11:49:51.386Z</time>
      </trkpt>
      <trkpt lat="49.192656" lon="10.855618">
        <ele>384.389502</ele>
        <time>2026-05-05T11:50:07.841Z</time>
      </trkpt>
      <trkpt lat="49.192601" lon="10.854727">
        <ele>384.806015</ele>
        <time>2026-05-05T11:50:23.350Z</time>
      </trkpt>
      <trkpt lat="49.192610" lon="10.854137">
        <ele>385.080673</ele>
        <time>2026-05-05T11:50:32.847Z</time>
      </trkpt>
      <trkpt lat="49.192651" lon="10.853759">
        <ele>385.258998</ele>
        <time>2026-05-05T11:50:38.402Z</time>
      </trkpt>
      <trkpt lat="49.192709" lon="10.853537">
        <ele>385.370266</ele>
        <time>2026-05-05T11:50:41.858Z</time>
      </trkpt>
      <trkpt lat="49.192973" lon="10.853182">
        <ele>385.620356</ele>
        <time>2026-05-05T11:50:49.774Z</time>
      </trkpt>
      <trkpt lat="49.193039" lon="10.853123">
        <ele>385.674678</ele>
        <time>2026-05-05T11:50:51.512Z</time>
      </trkpt>
      <trkpt lat="49.193423" lon="10.852854">
        <ele>385.974810</ele>
        <time>2026-05-05T11:51:01.214Z</time>
      </trkpt>
      <trkpt lat="49.193589" lon="10.852696">
        <ele>386.113740</ele>
        <time>2026-05-05T11:51:06.013Z</time>
      </trkpt>
      <trkpt lat="49.193691" lon="10.852478">
        <ele>386.238259</ele>
        <time>2026-05-05T11:51:10.499Z</time>
      </trkpt>
      <trkpt lat="49.193729" lon="10.852238">
        <ele>386.352945</ele>
        <time>2026-05-05T11:51:14.758Z</time>
      </trkpt>
      <trkpt lat="49.193710" lon="10.851006">
        <ele>386.911350</ele>
        <time>2026-05-05T11:51:37.113Z</time>
      </trkpt>
      <trkpt lat="49.193646" lon="10.849926">
        <ele>387.356387</ele>
        <time>2026-05-05T11:51:55.320Z</time>
      </trkpt>
      <trkpt lat="49.193505" lon="10.848050">
        <ele>388.139262</ele>
        <time>2026-05-05T11:52:23.813Z</time>
      </trkpt>
      <trkpt lat="49.193443" lon="10.847608">
        <ele>388.332265</ele>
        <time>2026-05-05T11:52:30.702Z</time>
      </trkpt>
      <trkpt lat="49.193344" lon="10.847273">
        <ele>388.489232</ele>
        <time>2026-05-05T11:52:36.457Z</time>
      </trkpt>
      <trkpt lat="49.193149" lon="10.846836">
        <ele>388.715148</ele>
        <time>2026-05-05T11:52:44.964Z</time>
      </trkpt>
      <trkpt lat="49.192029" lon="10.844634">
        <ele>390.559430</ele>
        <time>2026-05-05T11:53:34.124Z</time>
      </trkpt>
      <trkpt lat="49.191761" lon="10.843837">
        <ele>391.255606</ele>
        <time>2026-05-05T11:53:50.297Z</time>
      </trkpt>
      <trkpt lat="49.191113" lon="10.841644">
        <ele>393.044451</ele>
        <time>2026-05-05T11:54:32.494Z</time>
      </trkpt>
      <trkpt lat="49.190995" lon="10.841032">
        <ele>393.489437</ele>
        <time>2026-05-05T11:54:43.178Z</time>
      </trkpt>
      <trkpt lat="49.190855" lon="10.839232">
        <ele>394.660911</ele>
        <time>2026-05-05T11:55:14.387Z</time>
      </trkpt>
      <trkpt lat="49.190843" lon="10.839078">
        <ele>394.761139</ele>
        <time>2026-05-05T11:55:17.080Z</time>
      </trkpt>
      <trkpt lat="49.190751" lon="10.838446">
        <ele>395.137895</ele>
        <time>2026-05-05T11:55:28.113Z</time>
      </trkpt>
      <trkpt lat="49.190629" lon="10.837952">
        <ele>395.345693</ele>
        <time>2026-05-05T11:55:36.936Z</time>
      </trkpt>
      <trkpt lat="49.190490" lon="10.837385">
        <ele>395.583980</ele>
        <time>2026-05-05T11:55:46.998Z</time>
      </trkpt>
      <trkpt lat="49.190290" lon="10.836732">
        <ele>395.867745</ele>
        <time>2026-05-05T11:55:58.414Z</time>
      </trkpt>
      <trkpt lat="49.189857" lon="10.835561">
        <ele>396.382682</ele>
        <time>2026-05-05T11:56:18.662Z</time>
      </trkpt>
      <trkpt lat="49.189870" lon="10.835336">
        <ele>396.466228</ele>
        <time>2026-05-05T11:56:22.161Z</time>
      </trkpt>
      <trkpt lat="49.189630" lon="10.835048">
        <ele>396.638844</ele>
        <time>2026-05-05T11:56:29.498Z</time>
      </trkpt>
      <trkpt lat="49.189457" lon="10.834705">
        <ele>396.799098</ele>
        <time>2026-05-05T11:56:36.459Z</time>
      </trkpt>
      <trkpt lat="49.189342" lon="10.834383">
        <ele>396.934822</ele>
        <time>2026-05-05T11:56:42.498Z</time>
      </trkpt>
      <trkpt lat="49.189318" lon="10.834316">
        <ele>396.963082</ele>
        <time>2026-05-05T11:56:43.747Z</time>
      </trkpt>
      <trkpt lat="49.188958" lon="10.833297">
        <ele>397.635580</ele>
        <time>2026-05-05T11:57:03.507Z</time>
      </trkpt>
      <trkpt lat="49.188639" lon="10.832396">
        <ele>398.439547</ele>
        <time>2026-05-05T11:57:21.176Z</time>
      </trkpt>
      <trkpt lat="49.188473" lon="10.832017">
        <ele>398.797502</ele>
        <time>2026-05-05T11:57:29.396Z</time>
      </trkpt>
      <trkpt lat="49.188147" lon="10.831541">
        <ele>399.337735</ele>
        <time>2026-05-05T11:57:42.387Z</time>
      </trkpt>
      <trkpt lat="49.187747" lon="10.831086">
        <ele>399.856628</ele>
        <time>2026-05-05T11:57:56.582Z</time>
      </trkpt>
      <trkpt lat="49.187471" lon="10.830697">
        <ele>400.247288</ele>
        <time>2026-05-05T11:58:06.868Z</time>
      </trkpt>
      <trkpt lat="49.187197" lon="10.830481">
        <ele>400.568172</ele>
        <time>2026-05-05T11:58:15.275Z</time>
      </trkpt>
      <trkpt lat="49.186001" lon="10.829840">
        <ele>401.578061</ele>
        <time>2026-05-05T11:58:45.245Z</time>
      </trkpt>
      <trkpt lat="49.185854" lon="10.829702">
        <ele>401.676147</ele>
        <time>2026-05-05T11:58:48.972Z</time>
      </trkpt>
      <trkpt lat="49.185717" lon="10.829532">
        <ele>401.776467</ele>
        <time>2026-05-05T11:58:52.891Z</time>
      </trkpt>
      <trkpt lat="49.185551" lon="10.829217">
        <ele>401.926878</ele>
        <time>2026-05-05T11:58:59.130Z</time>
      </trkpt>
      <trkpt lat="49.185395" lon="10.828744">
        <ele>402.123821</ele>
        <time>2026-05-05T11:59:08.199Z</time>
      </trkpt>
      <trkpt lat="49.185288" lon="10.828515">
        <ele>402.228464</ele>
        <time>2026-05-05T11:59:13.190Z</time>
      </trkpt>
      <trkpt lat="49.185173" lon="10.828340">
        <ele>402.459084</ele>
        <time>2026-05-05T11:59:17.719Z</time>
      </trkpt>
      <trkpt lat="49.185021" lon="10.828180">
        <ele>402.721415</ele>
        <time>2026-05-05T11:59:22.987Z</time>
      </trkpt>
      <trkpt lat="49.184905" lon="10.828259">
        <ele>402.901951</ele>
        <time>2026-05-05T11:59:26.654Z</time>
      </trkpt>
      <trkpt lat="49.184754" lon="10.828268">
        <ele>403.116811</ele>
        <time>2026-05-05T11:59:31.080Z</time>
      </trkpt>
      <trkpt lat="49.184559" lon="10.828192">
        <ele>403.402924</ele>
        <time>2026-05-05T11:59:37.092Z</time>
      </trkpt>
      <trkpt lat="49.182743" lon="10.827037">
        <ele>405.652185</ele>
        <time>2026-05-05T12:00:31.333Z</time>
      </trkpt>
      <trkpt lat="49.182431" lon="10.826802">
        <ele>405.955272</ele>
        <time>2026-05-05T12:00:39.040Z</time>
      </trkpt>
      <trkpt lat="49.182035" lon="10.826284">
        <ele>406.402006</ele>
        <time>2026-05-05T12:00:51.610Z</time>
      </trkpt>
      <trkpt lat="49.181747" lon="10.825964">
        <ele>406.671451</ele>
        <time>2026-05-05T12:01:00.487Z</time>
      </trkpt>
      <trkpt lat="49.181675" lon="10.825825">
        <ele>406.759207</ele>
        <time>2026-05-05T12:01:03.235Z</time>
      </trkpt>
      <trkpt lat="49.181057" lon="10.825243">
        <ele>407.308559</ele>
        <time>2026-05-05T12:01:21.211Z</time>
      </trkpt>
      <trkpt lat="49.180845" lon="10.825037">
        <ele>407.498676</ele>
        <time>2026-05-05T12:01:27.934Z</time>
      </trkpt>
      <trkpt lat="49.180526" lon="10.824643">
        <ele>407.852880</ele>
        <time>2026-05-05T12:01:39.351Z</time>
      </trkpt>
      <trkpt lat="49.180196" lon="10.824136">
        <ele>408.371938</ele>
        <time>2026-05-05T12:01:51.247Z</time>
      </trkpt>
      <trkpt lat="49.179574" lon="10.822927">
        <ele>409.488110</ele>
        <time>2026-05-05T12:02:17.944Z</time>
      </trkpt>
      <trkpt lat="49.179259" lon="10.822445">
        <ele>409.973225</ele>
        <time>2026-05-05T12:02:30.468Z</time>
      </trkpt>
      <trkpt lat="49.178807" lon="10.821919">
        <ele>410.581807</ele>
        <time>2026-05-05T12:02:46.036Z</time>
      </trkpt>
      <trkpt lat="49.177040" lon="10.819827">
        <ele>412.914017</ele>
        <time>2026-05-05T12:03:43.554Z</time>
      </trkpt>
      <trkpt lat="49.176793" lon="10.819456">
        <ele>413.267727</ele>
        <time>2026-05-05T12:03:52.783Z</time>
      </trkpt>
      <trkpt lat="49.175981" lon="10.818605">
        <ele>415.075978</ele>
        <time>2026-05-05T12:04:20.821Z</time>
      </trkpt>
      <trkpt lat="49.176001" lon="10.818511">
        <ele>415.208494</ele>
        <time>2026-05-05T12:04:23.770Z</time>
      </trkpt>
      <trkpt lat="49.175673" lon="10.818202">
        <ele>415.998397</ele>
        <time>2026-05-05T12:04:35.474Z</time>
      </trkpt>
      <trkpt lat="49.175744" lon="10.817951">
        <ele>416.365018</ele>
        <time>2026-05-05T12:04:41.172Z</time>
      </trkpt>
      <trkpt lat="49.175768" lon="10.817739">
        <ele>416.653440</ele>
        <time>2026-05-05T12:04:45.663Z</time>
      </trkpt>
      <trkpt lat="49.175589" lon="10.817698">
        <ele>417.024581</ele>
        <time>2026-05-05T12:04:51.570Z</time>
      </trkpt>
      <trkpt lat="49.175406" lon="10.817756">
        <ele>417.577185</ele>
        <time>2026-05-05T12:04:57.818Z</time>
      </trkpt>
      <trkpt lat="49.174122" lon="10.816519">
        <ele>422.856154</ele>
        <time>2026-05-05T12:05:52.416Z</time>
      </trkpt>
      <trkpt lat="49.174013" lon="10.816002">
        <ele>424.236565</ele>
        <time>2026-05-05T12:06:06.590Z</time>
      </trkpt>
      <trkpt lat="49.173938" lon="10.815878">
        <ele>424.703909</ele>
        <time>2026-05-05T12:06:11.083Z</time>
      </trkpt>
      <trkpt lat="49.173821" lon="10.815827">
        <ele>425.218728</ele>
        <time>2026-05-05T12:06:16.103Z</time>
      </trkpt>
      <trkpt lat="49.173200" lon="10.815854">
        <ele>427.847667</ele>
        <time>2026-05-05T12:06:41.768Z</time>
      </trkpt>
      <trkpt lat="49.172985" lon="10.815803">
        <ele>428.768356</ele>
        <time>2026-05-05T12:06:50.598Z</time>
      </trkpt>
      <trkpt lat="49.172734" lon="10.815644">
        <ele>429.917995</ele>
        <time>2026-05-05T12:07:01.342Z</time>
      </trkpt>
      <trkpt lat="49.172304" lon="10.815246">
        <ele>431.561675</ele>
        <time>2026-05-05T12:07:19.874Z</time>
      </trkpt>
      <trkpt lat="49.171677" lon="10.814493">
        <ele>433.324021</ele>
        <time>2026-05-05T12:07:45.107Z</time>
      </trkpt>
      <trkpt lat="49.170529" lon="10.813158">
        <ele>436.654098</ele>
        <time>2026-05-05T12:08:24.861Z</time>
      </trkpt>
      <trkpt lat="49.170138" lon="10.812600">
        <ele>437.947987</ele>
        <time>2026-05-05T12:08:41.152Z</time>
      </trkpt>
      <trkpt lat="49.169792" lon="10.812015">
        <ele>439.195881</ele>
        <time>2026-05-05T12:08:59.388Z</time>
      </trkpt>
      <trkpt lat="49.169540" lon="10.811499">
        <ele>441.142609</ele>
        <time>2026-05-05T12:09:16.198Z</time>
      </trkpt>
      <trkpt lat="49.168796" lon="10.809573">
        <ele>448.527775</ele>
        <time>2026-05-05T12:10:21.189Z</time>
      </trkpt>
      <trkpt lat="49.167798" lon="10.807365">
        <ele>457.257111</ele>
        <time>2026-05-05T12:11:34.050Z</time>
      </trkpt>
      <trkpt lat="49.167640" lon="10.806936">
        <ele>459.082950</ele>
        <time>2026-05-05T12:11:47.946Z</time>
      </trkpt>
      <trkpt lat="49.167429" lon="10.806057">
        <ele>462.594102</ele>
        <time>2026-05-05T12:12:15.561Z</time>
      </trkpt>
      <trkpt lat="49.167277" lon="10.805565">
        <ele>464.634569</ele>
        <time>2026-05-05T12:12:32.188Z</time>
      </trkpt>
      <trkpt lat="49.167130" lon="10.804926">
        <ele>467.174665</ele>
        <time>2026-05-05T12:12:53.200Z</time>
      </trkpt>
      <trkpt lat="49.166543" lon="10.803380">
        <ele>472.874865</ele>
        <time>2026-05-05T12:13:45.693Z</time>
      </trkpt>
      <trkpt lat="49.166451" lon="10.803017">
        <ele>474.097386</ele>
        <time>2026-05-05T12:13:55.836Z</time>
      </trkpt>
      <trkpt lat="49.165722" lon="10.802519">
        <ele>476.685984</ele>
        <time>2026-05-05T12:14:24.213Z</time>
      </trkpt>
      <trkpt lat="49.165530" lon="10.802468">
        <ele>476.887635</ele>
        <time>2026-05-05T12:14:30.228Z</time>
      </trkpt>
      <trkpt lat="49.165430" lon="10.802479">
        <ele>476.991379</ele>
        <time>2026-05-05T12:14:33.147Z</time>
      </trkpt>
      <trkpt lat="49.165318" lon="10.802392">
        <ele>477.121367</ele>
        <time>2026-05-05T12:14:36.616Z</time>
      </trkpt>
      <trkpt lat="49.165091" lon="10.802516">
        <ele>477.370794</ele>
        <time>2026-05-05T12:14:43.003Z</time>
      </trkpt>
      <trkpt lat="49.164552" lon="10.802333">
        <ele>477.942116</ele>
        <time>2026-05-05T12:14:55.178Z</time>
      </trkpt>
      <trkpt lat="49.163992" lon="10.802280">
        <ele>477.507025</ele>
        <time>2026-05-05T12:15:06.145Z</time>
      </trkpt>
      <trkpt lat="49.163989" lon="10.802433">
        <ele>477.279461</ele>
        <time>2026-05-05T12:15:07.991Z</time>
      </trkpt>
      <trkpt lat="49.163981" lon="10.802811">
        <ele>476.717203</ele>
        <time>2026-05-05T12:15:12.343Z</time>
      </trkpt>
      <trkpt lat="49.163945" lon="10.803218">
        <ele>476.106614</ele>
        <time>2026-05-05T12:15:16.952Z</time>
      </trkpt>
      <trkpt lat="49.163892" lon="10.803439">
        <ele>475.756658</ele>
        <time>2026-05-05T12:15:19.531Z</time>
      </trkpt>
      <trkpt lat="49.163756" lon="10.803375">
        <ele>475.433145</ele>
        <time>2026-05-05T12:15:21.900Z</time>
      </trkpt>
      <trkpt lat="49.163590" lon="10.803259">
        <ele>475.018198</ele>
        <time>2026-05-05T12:15:24.875Z</time>
      </trkpt>
      <trkpt lat="49.163535" lon="10.803121">
        <ele>474.777930</ele>
        <time>2026-05-05T12:15:26.610Z</time>
      </trkpt>
      <trkpt lat="49.163485" lon="10.802822">
        <ele>474.319104</ele>
        <time>2026-05-05T12:15:29.886Z</time>
      </trkpt>
      <trkpt lat="49.163030" lon="10.802538">
        <ele>472.550536</ele>
        <time>2026-05-05T12:15:37.844Z</time>
      </trkpt>
      <trkpt lat="49.162568" lon="10.802141">
        <ele>470.487094</ele>
        <time>2026-05-05T12:15:46.086Z</time>
      </trkpt>
      <trkpt lat="49.160452" lon="10.799435">
        <ele>460.270562</ele>
        <time>2026-05-05T12:16:29.318Z</time>
      </trkpt>
      <trkpt lat="49.160153" lon="10.799834">
        <ele>460.084603</ele>
        <time>2026-05-05T12:16:36.367Z</time>
      </trkpt>
      <trkpt lat="49.160056" lon="10.799905">
        <ele>460.034210</ele>
        <time>2026-05-05T12:16:38.377Z</time>
      </trkpt>
      <trkpt lat="49.159968" lon="10.799692">
        <ele>459.957004</ele>
        <time>2026-05-05T12:16:41.593Z</time>
      </trkpt>
      <trkpt lat="49.159895" lon="10.798842">
        <ele>459.694293</ele>
        <time>2026-05-05T12:16:54.682Z</time>
      </trkpt>
      <trkpt lat="49.159832" lon="10.798679">
        <ele>459.636272</ele>
        <time>2026-05-05T12:16:57.921Z</time>
      </trkpt>
      <trkpt lat="49.159658" lon="10.798522">
        <ele>459.541600</ele>
        <time>2026-05-05T12:17:03.187Z</time>
      </trkpt>
      <trkpt lat="49.158585" lon="10.797843">
        <ele>461.930136</ele>
        <time>2026-05-05T12:17:38.335Z</time>
      </trkpt>
      <trkpt lat="49.158342" lon="10.797774">
        <ele>462.531093</ele>
        <time>2026-05-05T12:17:46.753Z</time>
      </trkpt>
      <trkpt lat="49.157183" lon="10.797620">
        <ele>465.978998</ele>
        <time>2026-05-05T12:18:28.249Z</time>
      </trkpt>
      <trkpt lat="49.156418" lon="10.797574">
        <ele>468.601279</ele>
        <time>2026-05-05T12:18:57.143Z</time>
      </trkpt>
      <trkpt lat="49.156006" lon="10.797632">
        <ele>470.008276</ele>
        <time>2026-05-05T12:19:12.304Z</time>
      </trkpt>
      <trkpt lat="49.155404" lon="10.797600">
        <ele>470.466557</ele>
        <time>2026-05-05T12:19:31.201Z</time>
      </trkpt>
      <trkpt lat="49.155000" lon="10.797469">
        <ele>470.780758</ele>
        <time>2026-05-05T12:19:41.506Z</time>
      </trkpt>
      <trkpt lat="49.153643" lon="10.796699">
        <ele>469.770152</ele>
        <time>2026-05-05T12:20:10.068Z</time>
      </trkpt>
      <trkpt lat="49.152984" lon="10.796122">
        <ele>467.946921</ele>
        <time>2026-05-05T12:20:22.949Z</time>
      </trkpt>
      <trkpt lat="49.152836" lon="10.796075">
        <ele>467.584009</ele>
        <time>2026-05-05T12:20:25.334Z</time>
      </trkpt>
      <trkpt lat="49.152770" lon="10.795934">
        <ele>467.311740</ele>
        <time>2026-05-05T12:20:27.115Z</time>
      </trkpt>
      <trkpt lat="49.152773" lon="10.795821">
        <ele>467.134153</ele>
        <time>2026-05-05T12:20:28.317Z</time>
      </trkpt>
      <trkpt lat="49.153101" lon="10.795105">
        <ele>464.707942</ele>
        <time>2026-05-05T12:20:37.368Z</time>
      </trkpt>
      <trkpt lat="49.153162" lon="10.794842">
        <ele>463.913011</ele>
        <time>2026-05-05T12:20:40.170Z</time>
      </trkpt>
      <trkpt lat="49.153474" lon="10.794247">
        <ele>461.740522</ele>
        <time>2026-05-05T12:20:47.823Z</time>
      </trkpt>
      <trkpt lat="49.153642" lon="10.793812">
        <ele>460.301416</ele>
        <time>2026-05-05T12:20:53.210Z</time>
      </trkpt>
      <trkpt lat="49.153881" lon="10.793512">
        <ele>459.220063</ele>
        <time>2026-05-05T12:20:58.714Z</time>
      </trkpt>
      <trkpt lat="49.153663" lon="10.793194">
        <ele>459.213776</ele>
        <time>2026-05-05T12:21:04.655Z</time>
      </trkpt>
      <trkpt lat="49.152289" lon="10.792370">
        <ele>459.201303</ele>
        <time>2026-05-05T12:21:43.682Z</time>
      </trkpt>
      <trkpt lat="49.152003" lon="10.792147">
        <ele>459.342376</ele>
        <time>2026-05-05T12:21:52.338Z</time>
      </trkpt>
      <trkpt lat="49.151798" lon="10.791793">
        <ele>459.478265</ele>
        <time>2026-05-05T12:22:00.430Z</time>
      </trkpt>
      <trkpt lat="49.151158" lon="10.789350">
        <ele>459.605797</ele>
        <time>2026-05-05T12:22:41.558Z</time>
      </trkpt>
      <trkpt lat="49.150633" lon="10.788285">
        <ele>459.063713</ele>
        <time>2026-05-05T12:22:59.950Z</time>
      </trkpt>
      <trkpt lat="49.150617" lon="10.787666">
        <ele>458.652681</ele>
        <time>2026-05-05T12:23:07.454Z</time>
      </trkpt>
      <trkpt lat="49.150568" lon="10.787556">
        <ele>458.404887</ele>
        <time>2026-05-05T12:23:09.026Z</time>
      </trkpt>
      <trkpt lat="49.150527" lon="10.787500">
        <ele>458.248386</ele>
        <time>2026-05-05T12:23:10.008Z</time>
      </trkpt>
      <trkpt lat="49.150314" lon="10.787376">
        <ele>457.599591</ele>
        <time>2026-05-05T12:23:14.012Z</time>
      </trkpt>
      <trkpt lat="49.150144" lon="10.787215">
        <ele>457.030346</ele>
        <time>2026-05-05T12:23:17.437Z</time>
      </trkpt>
      <trkpt lat="49.147191" lon="10.786872">
        <ele>447.370716</ele>
        <time>2026-05-05T12:24:04.980Z</time>
      </trkpt>
      <trkpt lat="49.146994" lon="10.786802">
        <ele>446.909308</ele>
        <time>2026-05-05T12:24:08.164Z</time>
      </trkpt>
      <trkpt lat="49.146581" lon="10.786913">
        <ele>445.952658</ele>
        <time>2026-05-05T12:24:14.844Z</time>
      </trkpt>
      <trkpt lat="49.146249" lon="10.786862">
        <ele>445.191432</ele>
        <time>2026-05-05T12:24:20.368Z</time>
      </trkpt>
      <trkpt lat="49.145961" lon="10.786753">
        <ele>444.514565</ele>
        <time>2026-05-05T12:24:25.374Z</time>
      </trkpt>
      <trkpt lat="49.145680" lon="10.786552">
        <ele>443.806798</ele>
        <time>2026-05-05T12:24:30.855Z</time>
      </trkpt>
      <trkpt lat="49.145191" lon="10.785903">
        <ele>443.539373</ele>
        <time>2026-05-05T12:24:46.720Z</time>
      </trkpt>
      <trkpt lat="49.145018" lon="10.785711">
        <ele>443.672212</ele>
        <time>2026-05-05T12:24:52.404Z</time>
      </trkpt>
      <trkpt lat="49.144571" lon="10.785115">
        <ele>444.040771</ele>
        <time>2026-05-05T12:25:08.873Z</time>
      </trkpt>
      <trkpt lat="49.144423" lon="10.784900">
        <ele>444.167635</ele>
        <time>2026-05-05T12:25:14.188Z</time>
      </trkpt>
      <trkpt lat="49.144117" lon="10.784449">
        <ele>444.345565</ele>
        <time>2026-05-05T12:25:25.285Z</time>
      </trkpt>
      <trkpt lat="49.144022" lon="10.784307">
        <ele>444.217323</ele>
        <time>2026-05-05T12:25:28.662Z</time>
      </trkpt>
      <trkpt lat="49.142756" lon="10.781723">
        <ele>441.793527</ele>
        <time>2026-05-05T12:26:07.960Z</time>
      </trkpt>
      <trkpt lat="49.142281" lon="10.781120">
        <ele>440.722057</ele>
        <time>2026-05-05T12:26:18.776Z</time>
      </trkpt>
      <trkpt lat="49.141902" lon="10.780810">
        <ele>439.976125</ele>
        <time>2026-05-05T12:26:26.774Z</time>
      </trkpt>
      <trkpt lat="49.141431" lon="10.780627">
        <ele>439.296474</ele>
        <time>2026-05-05T12:26:35.840Z</time>
      </trkpt>
      <trkpt lat="49.140833" lon="10.780617">
        <ele>438.675112</ele>
        <time>2026-05-05T12:26:47.101Z</time>
      </trkpt>
      <trkpt lat="49.139778" lon="10.780815">
        <ele>437.652760</ele>
        <time>2026-05-05T12:27:09.812Z</time>
      </trkpt>
      <trkpt lat="49.139635" lon="10.780841">
        <ele>437.624443</ele>
        <time>2026-05-05T12:27:13.301Z</time>
      </trkpt>
      <trkpt lat="49.138499" lon="10.781071">
        <ele>437.399113</ele>
        <time>2026-05-05T12:27:41.283Z</time>
      </trkpt>
      <trkpt lat="49.136460" lon="10.781416">
        <ele>435.546620</ele>
        <time>2026-05-05T12:28:22.089Z</time>
      </trkpt>
      <trkpt lat="49.136352" lon="10.781396">
        <ele>435.429109</ele>
        <time>2026-05-05T12:28:24.165Z</time>
      </trkpt>
      <trkpt lat="49.136222" lon="10.781324">
        <ele>435.255386</ele>
        <time>2026-05-05T12:28:26.809Z</time>
      </trkpt>
      <trkpt lat="49.135144" lon="10.780242">
        <ele>433.507421</ele>
        <time>2026-05-05T12:28:51.504Z</time>
      </trkpt>
      <trkpt lat="49.133429" lon="10.778358">
        <ele>429.204533</ele>
        <time>2026-05-05T12:29:28.282Z</time>
      </trkpt>
      <trkpt lat="49.133072" lon="10.777918">
        <ele>428.011152</ele>
        <time>2026-05-05T12:29:35.966Z</time>
      </trkpt>
      <trkpt lat="49.132590" lon="10.777164">
        <ele>426.133403</ele>
        <time>2026-05-05T12:29:47.374Z</time>
      </trkpt>
      <trkpt lat="49.132463" lon="10.776771">
        <ele>425.352607</ele>
        <time>2026-05-05T12:29:52.082Z</time>
      </trkpt>
      <trkpt lat="49.132261" lon="10.775483">
        <ele>423.340400</ele>
        <time>2026-05-05T12:30:06.775Z</time>
      </trkpt>
      <trkpt lat="49.132225" lon="10.775367">
        <ele>423.185327</ele>
        <time>2026-05-05T12:30:08.299Z</time>
      </trkpt>
      <trkpt lat="49.132170" lon="10.775364">
        <ele>423.083732</ele>
        <time>2026-05-05T12:30:09.317Z</time>
      </trkpt>
      <trkpt lat="49.131847" lon="10.775588">
        <ele>422.428962</ele>
        <time>2026-05-05T12:30:15.848Z</time>
      </trkpt>
      <trkpt lat="49.131749" lon="10.775621">
        <ele>422.243716</ele>
        <time>2026-05-05T12:30:17.736Z</time>
      </trkpt>
      <trkpt lat="49.131674" lon="10.775567">
        <ele>422.090672</ele>
        <time>2026-05-05T12:30:19.295Z</time>
      </trkpt>
      <trkpt lat="49.131461" lon="10.775061">
        <ele>421.363932</ele>
        <time>2026-05-05T12:30:26.889Z</time>
      </trkpt>
      <trkpt lat="49.131239" lon="10.774484">
        <ele>420.629807</ele>
        <time>2026-05-05T12:30:35.568Z</time>
      </trkpt>
      <trkpt lat="49.131020" lon="10.773785">
        <ele>420.049197</ele>
        <time>2026-05-05T12:30:45.577Z</time>
      </trkpt>
      <trkpt lat="49.130811" lon="10.772974">
        <ele>419.396186</ele>
        <time>2026-05-05T12:30:56.820Z</time>
      </trkpt>
      <trkpt lat="49.130519" lon="10.771702">
        <ele>418.463717</ele>
        <time>2026-05-05T12:31:14.593Z</time>
      </trkpt>
      <trkpt lat="49.130539" lon="10.771318">
        <ele>418.248237</ele>
        <time>2026-05-05T12:31:19.689Z</time>
      </trkpt>
      <trkpt lat="49.130597" lon="10.771230">
        <ele>418.178369</ele>
        <time>2026-05-05T12:31:21.270Z</time>
      </trkpt>
      <trkpt lat="49.130872" lon="10.770736">
        <ele>417.815567</ele>
        <time>2026-05-05T12:31:30.592Z</time>
      </trkpt>
      <trkpt lat="49.131043" lon="10.770341">
        <ele>417.550635</ele>
        <time>2026-05-05T12:31:37.541Z</time>
      </trkpt>
      <trkpt lat="49.131188" lon="10.769902">
        <ele>417.275560</ele>
        <time>2026-05-05T12:31:44.768Z</time>
      </trkpt>
      <trkpt lat="49.131391" lon="10.769062">
        <ele>416.899282</ele>
        <time>2026-05-05T12:31:57.710Z</time>
      </trkpt>
      <trkpt lat="49.131554" lon="10.767973">
        <ele>416.479506</ele>
        <time>2026-05-05T12:32:14.286Z</time>
      </trkpt>
      <trkpt lat="49.131558" lon="10.767544">
        <ele>416.318288</ele>
        <time>2026-05-05T12:32:20.771Z</time>
      </trkpt>
      <trkpt lat="49.131521" lon="10.767063">
        <ele>416.136302</ele>
        <time>2026-05-05T12:32:28.183Z</time>
      </trkpt>
      <trkpt lat="49.131419" lon="10.766335">
        <ele>416.077530</ele>
        <time>2026-05-05T12:32:39.754Z</time>
      </trkpt>
      <trkpt lat="49.131337" lon="10.766011">
        <ele>416.055909</ele>
        <time>2026-05-05T12:32:45.247Z</time>
      </trkpt>
      <trkpt lat="49.131252" lon="10.765721">
        <ele>416.036131</ele>
        <time>2026-05-05T12:32:50.360Z</time>
      </trkpt>
      <trkpt lat="49.131074" lon="10.765277">
        <ele>416.003722</ele>
        <time>2026-05-05T12:32:58.833Z</time>
      </trkpt>
      <trkpt lat="49.130905" lon="10.764929">
        <ele>415.976749</ele>
        <time>2026-05-05T12:33:05.935Z</time>
      </trkpt>
      <trkpt lat="49.130570" lon="10.764395">
        <ele>415.952211</ele>
        <time>2026-05-05T12:33:17.957Z</time>
      </trkpt>
      <trkpt lat="49.130907" lon="10.763715">
        <ele>415.957352</ele>
        <time>2026-05-05T12:33:31.621Z</time>
      </trkpt>
      <trkpt lat="49.130976" lon="10.763528">
        <ele>415.958647</ele>
        <time>2026-05-05T12:33:35.090Z</time>
      </trkpt>
      <trkpt lat="49.130995" lon="10.763326">
        <ele>415.959877</ele>
        <time>2026-05-05T12:33:38.367Z</time>
      </trkpt>
      <trkpt lat="49.130926" lon="10.763295">
        <ele>415.960539</ele>
        <time>2026-05-05T12:33:40.148Z</time>
      </trkpt>
      <trkpt lat="49.130513" lon="10.763120">
        <ele>415.964487</ele>
        <time>2026-05-05T12:33:49.704Z</time>
      </trkpt>
      <trkpt lat="49.130454" lon="10.763121">
        <ele>415.965031</ele>
        <time>2026-05-05T12:33:51.025Z</time>
      </trkpt>
      <trkpt lat="49.130413" lon="10.763178">
        <ele>415.965541</ele>
        <time>2026-05-05T12:33:52.254Z</time>
      </trkpt>
      <trkpt lat="49.130395" lon="10.763259">
        <ele>415.966057</ele>
        <time>2026-05-05T12:33:53.664Z</time>
      </trkpt>
      <trkpt lat="49.130403" lon="10.763510">
        <ele>415.987527</ele>
        <time>2026-05-05T12:33:57.764Z</time>
      </trkpt>
      <trkpt lat="49.130373" lon="10.763668">
        <ele>416.017160</ele>
        <time>2026-05-05T12:34:00.458Z</time>
      </trkpt>
      <trkpt lat="49.130202" lon="10.764049">
        <ele>416.100379</ele>
        <time>2026-05-05T12:34:08.117Z</time>
      </trkpt>
      <trkpt lat="49.130045" lon="10.764430">
        <ele>416.181481</ele>
        <time>2026-05-05T12:34:19.347Z</time>
      </trkpt>
      <trkpt lat="49.129013" lon="10.763434">
        <ele>416.445364</ele>
        <time>2026-05-05T12:34:48.702Z</time>
      </trkpt>
      <trkpt lat="49.128634" lon="10.762977">
        <ele>416.405504</ele>
        <time>2026-05-05T12:34:59.447Z</time>
      </trkpt>
      <trkpt lat="49.128343" lon="10.762723">
        <ele>416.377835</ele>
        <time>2026-05-05T12:35:06.673Z</time>
      </trkpt>
      <trkpt lat="49.128091" lon="10.762453">
        <ele>416.352425</ele>
        <time>2026-05-05T12:35:13.228Z</time>
      </trkpt>
      <trkpt lat="49.127678" lon="10.761569">
        <ele>416.237916</ele>
        <time>2026-05-05T12:35:27.996Z</time>
      </trkpt>
      <trkpt lat="49.127192" lon="10.760023">
        <ele>415.883412</ele>
        <time>2026-05-05T12:35:51.694Z</time>
      </trkpt>
      <trkpt lat="49.126706" lon="10.757926">
        <ele>415.541473</ele>
        <time>2026-05-05T12:36:22.591Z</time>
      </trkpt>
      <trkpt lat="49.126553" lon="10.757092">
        <ele>415.428027</ele>
        <time>2026-05-05T12:36:34.710Z</time>
      </trkpt>
      <trkpt lat="49.125661" lon="10.754926">
        <ele>415.650741</ele>
        <time>2026-05-05T12:37:13.065Z</time>
      </trkpt>
      <trkpt lat="49.125082" lon="10.753791">
        <ele>415.611392</ele>
        <time>2026-05-05T12:37:35.374Z</time>
      </trkpt>
      <trkpt lat="49.124826" lon="10.753174">
        <ele>415.531923</ele>
        <time>2026-05-05T12:37:45.900Z</time>
      </trkpt>
      <trkpt lat="49.124615" lon="10.752588">
        <ele>415.459168</ele>
        <time>2026-05-05T12:37:54.839Z</time>
      </trkpt>
      <trkpt lat="49.124511" lon="10.752211">
        <ele>415.414664</ele>
        <time>2026-05-05T12:38:00.143Z</time>
      </trkpt>
      <trkpt lat="49.124389" lon="10.752366">
        <ele>415.308870</ele>
        <time>2026-05-05T12:38:03.264Z</time>
      </trkpt>
      <trkpt lat="49.124156" lon="10.752573">
        <ele>415.119759</ele>
        <time>2026-05-05T12:38:08.506Z</time>
      </trkpt>
      <trkpt lat="49.124089" lon="10.752428">
        <ele>415.038253</ele>
        <time>2026-05-05T12:38:10.761Z</time>
      </trkpt>
      <trkpt lat="49.123752" lon="10.751474">
        <ele>414.540444</ele>
        <time>2026-05-05T12:38:24.686Z</time>
      </trkpt>
      <trkpt lat="49.123401" lon="10.750313">
        <ele>414.057874</ele>
        <time>2026-05-05T12:38:41.962Z</time>
      </trkpt>
      <trkpt lat="49.123221" lon="10.749685">
        <ele>413.909746</ele>
        <time>2026-05-05T12:38:51.381Z</time>
      </trkpt>
      <trkpt lat="49.123029" lon="10.748878">
        <ele>413.724222</ele>
        <time>2026-05-05T12:39:03.249Z</time>
      </trkpt>
      <trkpt lat="49.122867" lon="10.747971">
        <ele>413.574620</ele>
        <time>2026-05-05T12:39:16.328Z</time>
      </trkpt>
      <trkpt lat="49.122241" lon="10.748275">
        <ele>413.680212</ele>
        <time>2026-05-05T12:39:31.114Z</time>
      </trkpt>
      <trkpt lat="49.121895" lon="10.748331">
        <ele>413.736144</ele>
        <time>2026-05-05T12:39:39.523Z</time>
      </trkpt>
      <trkpt lat="49.121442" lon="10.748449">
        <ele>413.810016</ele>
        <time>2026-05-05T12:39:50.468Z</time>
      </trkpt>
      <trkpt lat="49.120971" lon="10.748635">
        <ele>413.907201</ele>
        <time>2026-05-05T12:40:01.603Z</time>
      </trkpt>
      <trkpt lat="49.120675" lon="10.748891">
        <ele>413.986595</ele>
        <time>2026-05-05T12:40:09.148Z</time>
      </trkpt>
      <trkpt lat="49.120006" lon="10.749634">
        <ele>414.179651</ele>
        <time>2026-05-05T12:40:27.898Z</time>
      </trkpt>
      <trkpt lat="49.119634" lon="10.750149">
        <ele>414.296255</ele>
        <time>2026-05-05T12:40:40.108Z</time>
      </trkpt>
      <trkpt lat="49.119359" lon="10.750723">
        <ele>414.402910</ele>
        <time>2026-05-05T12:40:51.538Z</time>
      </trkpt>
      <trkpt lat="49.119253" lon="10.750915">
        <ele>414.440572</ele>
        <time>2026-05-05T12:40:55.747Z</time>
      </trkpt>
      <trkpt lat="49.119154" lon="10.751035">
        <ele>414.469521</ele>
        <time>2026-05-05T12:40:58.973Z</time>
      </trkpt>
      <trkpt lat="49.119069" lon="10.751134">
        <ele>414.494006</ele>
        <time>2026-05-05T12:41:01.618Z</time>
      </trkpt>
      <trkpt lat="49.118889" lon="10.751346">
        <ele>414.546070</ele>
        <time>2026-05-05T12:41:07.142Z</time>
      </trkpt>
      <trkpt lat="49.118715" lon="10.751600">
        <ele>414.601199</ele>
        <time>2026-05-05T12:41:12.604Z</time>
      </trkpt>
      <trkpt lat="49.118583" lon="10.751259">
        <ele>414.660600</ele>
        <time>2026-05-05T12:41:18.094Z</time>
      </trkpt>
      <trkpt lat="49.118460" lon="10.751105">
        <ele>414.608218</ele>
        <time>2026-05-05T12:41:22.374Z</time>
      </trkpt>
      <trkpt lat="49.118319" lon="10.750807">
        <ele>414.404421</ele>
        <time>2026-05-05T12:41:26.964Z</time>
      </trkpt>
      <trkpt lat="49.118289" lon="10.750801">
        <ele>414.378800</ele>
        <time>2026-05-05T12:41:27.542Z</time>
      </trkpt>
      <trkpt lat="49.117977" lon="10.750284">
        <ele>413.989050</ele>
        <time>2026-05-05T12:41:36.318Z</time>
      </trkpt>
      <trkpt lat="49.117923" lon="10.750232">
        <ele>413.934999</ele>
        <time>2026-05-05T12:41:37.558Z</time>
      </trkpt>
      <trkpt lat="49.117515" lon="10.750459">
        <ele>413.567312</ele>
        <time>2026-05-05T12:41:45.699Z</time>
      </trkpt>
      <trkpt lat="49.117194" lon="10.750718">
        <ele>413.259915</ele>
        <time>2026-05-05T12:41:52.694Z</time>
      </trkpt>
      <trkpt lat="49.116729" lon="10.751077">
        <ele>413.155622</ele>
        <time>2026-05-05T12:42:03.634Z</time>
      </trkpt>
      <trkpt lat="49.116571" lon="10.751112">
        <ele>413.155857</ele>
        <time>2026-05-05T12:42:07.237Z</time>
      </trkpt>
      <trkpt lat="49.116489" lon="10.751171">
        <ele>413.155991</ele>
        <time>2026-05-05T12:42:09.322Z</time>
      </trkpt>
      <trkpt lat="49.116406" lon="10.751234">
        <ele>413.156128</ele>
        <time>2026-05-05T12:42:11.449Z</time>
      </trkpt>
      <trkpt lat="49.116238" lon="10.751360">
        <ele>413.156404</ele>
        <time>2026-05-05T12:42:15.707Z</time>
      </trkpt>
      <trkpt lat="49.115786" lon="10.751952">
        <ele>413.157283</ele>
        <time>2026-05-05T12:42:29.680Z</time>
      </trkpt>
      <trkpt lat="49.115559" lon="10.752082">
        <ele>413.157640</ele>
        <time>2026-05-05T12:42:35.423Z</time>
      </trkpt>
      <trkpt lat="49.115448" lon="10.752057">
        <ele>413.173789</ele>
        <time>2026-05-05T12:42:37.973Z</time>
      </trkpt>
      <trkpt lat="49.115411" lon="10.752057">
        <ele>413.181369</ele>
        <time>2026-05-05T12:42:38.871Z</time>
      </trkpt>
      <trkpt lat="49.115327" lon="10.752131">
        <ele>413.201231</ele>
        <time>2026-05-05T12:42:41.039Z</time>
      </trkpt>
      <trkpt lat="49.115327" lon="10.752290">
        <ele>413.222550</ele>
        <time>2026-05-05T12:42:43.463Z</time>
      </trkpt>
      <trkpt lat="49.115186" lon="10.752519">
        <ele>413.264704</ele>
        <time>2026-05-05T12:42:48.109Z</time>
      </trkpt>
      <trkpt lat="49.115195" lon="10.752610">
        <ele>413.277043</ele>
        <time>2026-05-05T12:42:49.973Z</time>
      </trkpt>
      <trkpt lat="49.114978" lon="10.752719">
        <ele>413.323835</ele>
        <time>2026-05-05T12:42:55.172Z</time>
      </trkpt>
      <trkpt lat="49.114591" lon="10.752911">
        <ele>413.407185</ele>
        <time>2026-05-05T12:43:04.557Z</time>
      </trkpt>
      <trkpt lat="49.114147" lon="10.753154">
        <ele>413.503795</ele>
        <time>2026-05-05T12:43:16.137Z</time>
      </trkpt>
      <trkpt lat="49.114049" lon="10.753224">
        <ele>413.525956</ele>
        <time>2026-05-05T12:43:18.711Z</time>
      </trkpt>
      <trkpt lat="49.113949" lon="10.753296">
        <ele>413.583696</ele>
        <time>2026-05-05T12:43:21.401Z</time>
      </trkpt>
      <trkpt lat="49.113837" lon="10.753378">
        <ele>413.648872</ele>
        <time>2026-05-05T12:43:24.496Z</time>
      </trkpt>
      <trkpt lat="49.113359" lon="10.753801">
        <ele>413.938761</ele>
        <time>2026-05-05T12:43:39.042Z</time>
      </trkpt>
      <trkpt lat="49.113186" lon="10.753952">
        <ele>414.043321</ele>
        <time>2026-05-05T12:43:44.272Z</time>
      </trkpt>
      <trkpt lat="49.112473" lon="10.754568">
        <ele>414.470955</ele>
        <time>2026-05-05T12:44:05.026Z</time>
      </trkpt>
      <trkpt lat="49.112087" lon="10.754860">
        <ele>414.537675</ele>
        <time>2026-05-05T12:44:14.998Z</time>
      </trkpt>
      <trkpt lat="49.111879" lon="10.754941">
        <ele>414.570925</ele>
        <time>2026-05-05T12:44:20.164Z</time>
      </trkpt>
      <trkpt lat="49.111824" lon="10.754962">
        <ele>414.579706</ele>
        <time>2026-05-05T12:44:21.526Z</time>
      </trkpt>
      <trkpt lat="49.111765" lon="10.754996">
        <ele>414.589474</ele>
        <time>2026-05-05T12:44:23.086Z</time>
      </trkpt>
      <trkpt lat="49.111695" lon="10.754960">
        <ele>414.600915</ele>
        <time>2026-05-05T12:44:24.826Z</time>
      </trkpt>
      <trkpt lat="49.111577" lon="10.754950">
        <ele>414.619221</ele>
        <time>2026-05-05T12:44:27.627Z</time>
      </trkpt>
      <trkpt lat="49.111525" lon="10.754946">
        <ele>414.627286</ele>
        <time>2026-05-05T12:44:29.144Z</time>
      </trkpt>
      <trkpt lat="49.111425" lon="10.754938">
        <ele>414.642797</ele>
        <time>2026-05-05T12:44:32.066Z</time>
      </trkpt>
      <trkpt lat="49.111297" lon="10.754933">
        <ele>414.662631</ele>
        <time>2026-05-05T12:44:35.777Z</time>
      </trkpt>
      <trkpt lat="49.111256" lon="10.754936">
        <ele>414.668989</ele>
        <time>2026-05-05T12:44:36.937Z</time>
      </trkpt>
      <trkpt lat="49.111093" lon="10.754944">
        <ele>414.694251</ele>
        <time>2026-05-05T12:44:40.470Z</time>
      </trkpt>
      <trkpt lat="49.111056" lon="10.755032">
        <ele>414.704856</ele>
        <time>2026-05-05T12:44:42.469Z</time>
      </trkpt>
      <trkpt lat="49.110767" lon="10.755040">
        <ele>414.748634</ele>
        <time>2026-05-05T12:44:53.400Z</time>
      </trkpt>
      <trkpt lat="49.110655" lon="10.755356">
        <ele>414.748634</ele>
        <time>2026-05-05T12:45:00.592Z</time>
      </trkpt>
      <trkpt lat="49.110646" lon="10.755508">
        <ele>414.748634</ele>
        <time>2026-05-05T12:45:03.637Z</time>
      </trkpt>
      <trkpt lat="49.110528" lon="10.755470">
        <ele>414.748634</ele>
        <time>2026-05-05T12:45:06.550Z</time>
      </trkpt>
      <trkpt lat="49.110307" lon="10.755499">
        <ele>414.748634</ele>
        <time>2026-05-05T12:45:11.910Z</time>
      </trkpt>
      <trkpt lat="49.110244" lon="10.755386">
        <ele>414.748634</ele>
        <time>2026-05-05T12:45:14.939Z</time>
      </trkpt>
      <trkpt lat="49.110278" lon="10.755257">
        <ele>414.748634</ele>
        <time>2026-05-05T12:45:17.777Z</time>
      </trkpt>
      <trkpt lat="49.110341" lon="10.755098">
        <ele>414.748634</ele>
        <time>2026-05-05T12:45:20.631Z</time>
      </trkpt>
    </trkseg>
  </trk>
</gpx>